Wake-n-waves — 9 — position and weather

sailwx.info

Track history (hours):
 
Tides and Currents Weather Stations Pressure Air Temp Water Temp Dewpoint Dewpoint Depression Visibility Wind Speed Wind Dir Waves Ship Positions

Wake-n-waves

Last reported at 2017-Sep-25 00:30 UTC. Time now 2017-Sep-25 00:33 UTC.
Position N 22°53' E 113°30'.

Length 17 m.

Type: Pleasure craft. MMSI: 338025702.

Date/timePositionNaut miles runAvg speedWind from/ knotsBaromVisibWave heightAir tempDewpointWater temp
2017-Sep-25 00:30N 22°53' E 113°30'63384388.2
2017-Sep-25 00:30N 29°56' E 122°17'963317338955.8
2017-Sep-25 00:30N 40°43' W 074°03'940376416.0
2017-Sep-25 00:23N 31°57' E 120°11'6491737.9
2017-Sep-25 00:00N 22°53' E 113°30'96232886996.8
2017-Sep-25 00:00N 40°43' W 074°03'963317338955.8
2017-Sep-25 00:00N 29°56' E 122°17'161115630.6
2017-Sep-25 00:00N 31°57' E 120°13'6501324.7
2017-Sep-24 23:30N 22°53' E 113°30'633108504.0
2017-Sep-24 23:30N 29°56' E 122°17'96334954023.0
2017-Sep-24 23:30N 40°43' W 074°03'940777675.6
2017-Sep-24 23:23N 31°57' E 120°17'6521760.7
2017-Sep-24 23:00N 22°53' E 113°30'96231332460.1
2017-Sep-24 23:00N 40°43' W 074°03'9633937252.2
2017-Sep-24 22:59N 29°56' E 122°17'1583721.4
2017-Sep-24 22:57N 31°58' E 120°19'6541486.2
2017-Sep-24 22:30N 22°53' E 113°30'96231237285.1
2017-Sep-24 22:30N 40°43' W 074°03'9633990808.2
2017-Sep-24 22:29N 29°56' E 122°17'1576347.8
2017-Sep-24 22:28N 31°58' E 120°22'6561426.8
2017-Sep-24 22:00N 22°53' E 113°30'96231649712.6
2017-Sep-24 22:00N 40°43' W 074°03'96331238504.1
2017-Sep-24 21:59N 29°56' E 122°17'6331310.3
2017-Sep-24 21:31N 22°53' E 113°30'96231049817.0
2017-Sep-24 21:30N 40°43' W 074°03'9633679963.8
2017-Sep-24 21:29N 29°56' E 122°17'6331325.5
2017-Sep-24 21:00N 22°53' E 113°30'63391141.7
2017-Sep-24 21:00N 29°56' E 122°17'96336935644.9
2017-Sep-24 21:00N 40°43' W 074°03'962319539.8
2017-Sep-24 20:30N 22°53' E 113°30'63387637.9
2017-Sep-24 20:30N 29°56' E 122°17'963317339112.2
2017-Sep-24 20:30N 40°43' W 074°03'962319540.0
2017-Sep-24 20:00N 22°53' E 113°30'63391136.0
2017-Sep-24 20:00N 29°56' E 122°17'9633191592.1
2017-Sep-24 19:57N 40°43' W 074°03'962321693.3
2017-Sep-24 19:30N 22°53' E 113°30'96231443509.5
2017-Sep-24 19:30N 40°43' W 074°03'96331576287.8
2017-Sep-24 19:30N 29°56' E 122°17'6331301.4
2017-Sep-24 19:00N 22°53' E 113°30'96231385770.9
2017-Sep-24 19:00N 40°43' W 074°03'9633262713.7
2017-Sep-24 18:58N 29°56' E 122°17'6331392.7
2017-Sep-24 18:31N 22°53' E 113°30'96231049826.3
2017-Sep-24 18:30N 40°43' W 074°03'96353468470.5
2017-Sep-24 18:30N 29°55' E 122°18'963519366.1
2017-Sep-24 18:00N 40°43' W 074°03'96233149477.4
2017-Sep-24 18:00N 22°53' E 113°30'0 0.0
2017-Sep-24 17:30N 22°53' E 113°30'9623167363.6
2017-Sep-24 17:27N 40°43' W 074°03'962321652.7
2017-Sep-24 17:00N 22°53' E 113°30'96231574739.5
2017-Sep-24 17:00N 40°43' W 074°03'962319463.1
2017-Sep-24 16:30N 22°53' E 113°30'96232037898.2
2017-Sep-24 16:30N 40°43' W 074°03'962319267.1
2017-Sep-24 16:00N 22°54' E 113°30'96238660545.6
2017-Sep-24 16:00N 40°43' W 074°03'962019566.9
2017-Sep-24 15:30N 22°54' E 113°28'96201236910.2
2017-Sep-24 15:30N 40°43' W 074°03'0 0.0
2017-Sep-24 15:00N 40°43' W 074°03'96182473209.1
2017-Sep-24 15:00N 22°55' E 113°25'6583268.4
2017-Sep-24 14:48N 31°58' E 120°24'6602303.8
2017-Sep-24 14:30N 22°54' E 113°23'96161153932.1
2017-Sep-24 14:30N 40°43' W 074°03'0 0.0
2017-Sep-24 14:00N 40°43' W 074°03'9615736433.1
2017-Sep-24 13:59N 22°53' E 113°20'961519733.4
2017-Sep-24 13:30N 40°43' W 074°03'9612449391.2
2017-Sep-24 13:29N 22°53' E 113°17'961218193.0
2017-Sep-24 12:57N 40°43' W 074°03'9609258144.9
2017-Sep-24 12:55N 22°54' E 113°13'960923325.3
2017-Sep-24 12:30N 40°43' W 074°03'941265920.2
2017-Sep-24 12:21N 31°58' E 120°24'941226286.3
2017-Sep-24 12:00N 40°43' W 074°03'9410201646.5
2017-Sep-24 11:57N 31°58' E 120°21'941020770.5
2017-Sep-24 11:30N 40°43' W 074°03'94093079194.6
2017-Sep-24 11:30N 31°57' E 120°18'940918911.8
2017-Sep-24 11:00N 40°43' W 074°03'9407258522.3
2017-Sep-24 10:58N 31°56' E 120°15'940720315.8
2017-Sep-24 10:30N 40°43' W 074°03'9405118389.3
2017-Sep-24 10:25N 31°56' E 120°12'940522349.4
2017-Sep-24 10:00N 40°43' W 074°03'9403520784.7
2017-Sep-24 09:59N 31°56' E 120°10'940319521.9
2017-Sep-24 09:30N 40°43' W 074°03'9402180043.5
2017-Sep-24 09:27N 31°56' E 120°09'940220984.6
2017-Sep-24 09:00N 40°43' W 074°03'9402221228.8
2017-Sep-24 08:57N 31°56' E 120°09'940220551.3
2017-Sep-24 08:30N 40°43' W 074°03'9402380318.9
2017-Sep-24 08:28N 31°56' E 120°09'0 0.2
2017-Sep-24 08:00N 31°56' E 120°09'940211282880.4
2017-Sep-24 08:00N 40°43' W 074°03'0 0.0
2017-Sep-24 07:30N 40°43' W 074°03'940242470.1
2017-Sep-24 07:17N 31°56' E 120°09'940233781.1
2017-Sep-24 07:00N 40°43' W 074°03'940265471.3
2017-Sep-24 06:51N 31°56' E 120°09'940226821.4
2017-Sep-24 06:30N 40°43' W 074°03'94024231075.1
2017-Sep-24 06:30N 31°56' E 120°09'665190.7
2017-Sep-24 06:29N 31°14' E 121°09'949619334.9
2017-Sep-24 06:00N 40°43' W 074°03'94971005586.7
2017-Sep-24 05:59N 31°12' E 121°09'1 3.1
2017-Sep-24 05:30N 31°11' E 121°09'94991424828.3
2017-Sep-24 05:30N 40°43' W 074°03'0 0.0
2017-Sep-24 05:00N 40°43' W 074°03'9500977193.0
2017-Sep-24 04:59N 31°09' E 121°09'691302.1
2017-Sep-24 04:56N 31°56' E 120°09'940221504.8
2017-Sep-24 04:30N 40°43' W 074°03'9502182927.1
2017-Sep-24 04:27N 31°08' E 121°10'70290.2
2017-Sep-24 04:12N 31°56' E 120°09'940245927.6
2017-Sep-24 04:00N 40°43' W 074°03'0 0.0
2017-Sep-24 03:30N 40°43' W 074°03'940249414.0
2017-Sep-24 03:19N 31°56' E 120°09'940230384.7
2017-Sep-24 03:00N 40°43' W 074°03'0 0.0
2017-Sep-24 02:30N 40°43' W 074°03'94021167193.7
2017-Sep-24 02:29N 31°56' E 120°09'940219112.7
2017-Sep-24 02:00N 40°43' W 074°03'940232267.5
2017-Sep-24 01:42N 31°56' E 120°09'940245131.5
2017-Sep-24 01:30N 40°43' W 074°03'0 0.0
2017-Sep-24 01:00N 40°43' W 074°03'0 0.0
2017-Sep-24 00:30N 40°43' W 074°03'940278717.2
2017-Sep-24 00:23N 31°56' E 120°09'940224724.9
2017-Sep-24 00:00N 40°43' W 074°03'940237861.5
2017-Sep-23 23:45N 31°56' E 120°09'940237318.8
2017-Sep-23 23:30N 40°43' W 074°03'0 0.0
2017-Sep-23 23:00N 40°43' W 074°03'940228159.7
2017-Sep-23 22:40N 31°56' E 120°09'940256413.4
2017-Sep-23 22:30N 40°43' W 074°03'940230659.4
2017-Sep-23 22:12N 31°56' E 120°09'940248632.2
2017-Sep-23 22:00N 40°43' W 074°03'9402240056.8
2017-Sep-23 21:58N 31°56' E 120°09'940220415.0
2017-Sep-23 21:30N 40°43' W 074°03'9402114739.2
2017-Sep-23 21:25N 31°56' E 120°09'940222460.6
2017-Sep-23 21:00N 40°43' W 074°03'0 0.0
2017-Sep-23 20:30N 40°43' W 074°03'9402130688.7
2017-Sep-23 20:26N 31°56' E 120°09'940221936.7
2017-Sep-23 20:00N 40°43' W 074°03'940240152.6
2017-Sep-23 19:46N 31°56' E 120°09'9402225.0
2017-Sep-22 01:59N 40°43' W 074°03'9468155645.1
2017-Sep-22 01:55N 31°41' E 121°11'119346.7
2017-Sep-22 01:34N 29°56' E 122°17'9632100511.2
2017-Sep-22 01:29N 40°43' W 074°03'9410967910.7
2017-Sep-22 01:28N 32°02' E 120°26'1571688.7
2017-Sep-22 01:22N 29°56' E 122°17'119995.1
2017-Sep-22 01:15N 31°41' E 121°11'45172.9
2017-Sep-22 01:00N 32°00' E 120°23'9409546345.3
2017-Sep-22 00:59N 40°43' W 074°03'9632121672.8
2017-Sep-22 00:54N 29°56' E 122°17'1194413.8
2017-Sep-22 00:52N 31°41' E 121°11'46123.4
2017-Sep-22 00:30N 31°59' E 120°21'9409537651.0
2017-Sep-22 00:29N 40°43' W 074°03'940919179.4
2017-Sep-21 23:59N 31°58' E 120°19'94091092609.0
2017-Sep-21 23:59N 40°43' W 074°03'946820386.5
2017-Sep-21 23:31N 31°41' E 121°11'491891.0
2017-Sep-21 23:29N 31°57' E 120°16'9408891249.2
2017-Sep-21 23:29N 40°43' W 074°03'9468102361.2
2017-Sep-21 23:23N 31°41' E 121°11'51134.4
2017-Sep-21 23:00N 31°56' E 120°14'517645.0
2017-Sep-21 23:00N 31°41' E 121°11'9468473420.6
2017-Sep-21 22:59N 40°43' W 074°03'0 0.0
2017-Sep-21 22:29N 40°43' W 074°03'940585930.3
2017-Sep-21 22:22N 31°56' E 120°11'53411.6
2017-Sep-21 22:14N 31°41' E 121°11'946836223.5
2017-Sep-21 21:59N 40°43' W 074°03'94031612014.0
2017-Sep-21 21:58N 31°56' E 120°10'940319007.5
2017-Sep-21 21:29N 40°43' W 074°03'0 0.0
2017-Sep-21 20:59N 40°43' W 074°03'0 0.0
2017-Sep-21 20:29N 40°43' W 074°03'946856904.7
2017-Sep-21 20:19N 31°41' E 121°11'946828334.1
2017-Sep-21 19:59N 40°43' W 074°03'0 0.0
2017-Sep-21 19:29N 40°43' W 074°03'0 0.0
2017-Sep-21 18:59N 40°43' W 074°03'946863004.8
2017-Sep-21 18:50N 31°41' E 121°11'946827095.0
2017-Sep-21 18:29N 40°43' W 074°03'0 0.0
2017-Sep-21 17:59N 40°43' W 074°03'0 0.0
2017-Sep-21 17:28N 40°43' W 074°03'0 0.0
2017-Sep-21 16:58N 40°43' W 074°03'0 0.0
2017-Sep-21 16:28N 40°43' W 074°03'946849256.6
2017-Sep-21 16:17N 31°41' E 121°11'946830735.4
2017-Sep-21 15:58N 40°43' W 074°03'946828643.4
2017-Sep-21 15:39N 31°41' E 121°11'946855786.7
2017-Sep-21 15:28N 40°43' W 074°03'9468619747.8
2017-Sep-21 15:27N 31°41' E 121°11'0 0.1
2017-Sep-21 15:00N 31°41' E 121°11'9468274889.6
2017-Sep-21 14:58N 40°43' W 074°03'0 0.0
2017-Sep-21 14:28N 40°43' W 074°03'946822019.6
2017-Sep-21 14:03N 31°41' E 121°11'9468135263.1
2017-Sep-21 13:58N 40°43' W 074°03'9468279395.9
2017-Sep-21 13:56N 31°41' E 121°11'946820313.6
2017-Sep-21 13:28N 40°43' W 074°03'946846124.9
2017-Sep-21 13:16N 31°41' E 121°11'946832066.1
2017-Sep-21 12:58N 40°43' W 074°03'0 0.0
2017-Sep-21 12:28N 40°43' W 074°03'946827735.0
2017-Sep-21 12:08N 31°41' E 121°11'946860011.1
2017-Sep-21 11:58N 40°43' W 074°03'0 0.0
2017-Sep-21 11:28N 40°43' W 074°03'0 0.0
2017-Sep-21 10:58N 40°43' W 074°03'946827735.0
2017-Sep-21 10:38N 31°41' E 121°11'946859695.8
2017-Sep-21 10:28N 40°43' W 074°03'0 0.0
2017-Sep-21 09:58N 40°43' W 074°03'0 0.0
2017-Sep-21 09:28N 40°43' W 074°03'946826692.5
2017-Sep-21 09:07N 31°41' E 121°11'946865424.7
2017-Sep-21 08:58N 40°43' W 074°03'946830763.8
2017-Sep-21 08:40N 31°41' E 121°11'946849186.6
2017-Sep-21 08:28N 40°43' W 074°03'9468382991.4
2017-Sep-21 08:27N 31°41' E 121°11'946819910.2
2017-Sep-21 07:58N 40°43' W 074°03'9468405783.3
2017-Sep-21 07:57N 31°41' E 121°11'946819863.5
2017-Sep-21 07:28N 40°43' W 074°03'946822483.9
2017-Sep-21 07:03N 31°41' E 121°11'9468120443.8
2017-Sep-21 06:58N 40°43' W 074°03'0 0.0
2017-Sep-21 06:28N 40°43' W 074°03'0 0.0
2017-Sep-21 05:58N 40°43' W 074°03'0 0.0
2017-Sep-21 05:28N 40°43' W 074°03'0 0.0
2017-Sep-21 04:58N 40°43' W 074°03'0 0.0
2017-Sep-21 04:28N 40°43' W 074°03'0 0.0
2017-Sep-21 03:58N 40°43' W 074°03'946866965.8
2017-Sep-21 03:50N 31°41' E 121°11'946828428.4
2017-Sep-21 03:30N 40°43' W 074°03'946882134.5
2017-Sep-21 03:23N 31°41' E 121°11'946824628.5
2017-Sep-21 03:00N 40°43' W 074°03'946839497.5
2017-Sep-21 02:45N 31°41' E 121°11'946836339.4
2017-Sep-21 02:30N 40°43' W 074°03'946845570.0
2017-Sep-21 02:17N 31°41' E 121°11'946832463.2
2017-Sep-21 02:00N 40°43' W 074°03'9468113243.5
2017-Sep-21 01:55N 31°41' E 121°11'946822693.9
2017-Sep-21 01:30N 40°43' W 074°03'9468142026.2
2017-Sep-21 01:26N 31°41' E 121°11'0 0.0
2017-Sep-21 01:00N 31°41' E 121°11'94681794016.0
2017-Sep-21 01:00N 40°43' W 074°03'0 0.0
2017-Sep-21 00:30N 40°43' W 074°03'946888998.1
2017-Sep-21 00:23N 31°41' E 121°11'946824038.3
2017-Sep-21 00:00N 40°43' W 074°03'946845938.4
2017-Sep-20 23:47N 31°41' E 121°11'946832248.2
2017-Sep-20 23:30N 40°43' W 074°03'946840101.5
2017-Sep-20 23:16N 31°41' E 121°11'946835842.6
2017-Sep-20 23:00N 40°43' W 074°03'94682840525.4
2017-Sep-20 23:00N 31°41' E 121°11'946819085.3
2017-Sep-20 22:30N 40°43' W 074°03'9468103605.7
2017-Sep-20 22:24N 31°41' E 121°11'946823140.7
2017-Sep-20 22:00N 40°43' W 074°03'946838472.1
2017-Sep-20 21:45N 31°41' E 121°11'946837293.5
2017-Sep-20 21:30N 40°43' W 074°03'946835956.0
2017-Sep-20 21:14N 31°41' E 121°11'946840007.4
2017-Sep-20 21:00N 40°43' W 074°03'9468405789.6
2017-Sep-20 20:58N 31°41' E 121°11'946819875.4
2017-Sep-20 20:30N 40°43' W 074°03'9468296402.6
2017-Sep-20 20:28N 31°41' E 121°11'946820217.3
2017-Sep-20 20:00N 40°43' W 074°03'94681217362.6
2017-Sep-20 19:59N 31°41' E 121°11'946819236.0
2017-Sep-20 19:30N 40°43' W 074°03'9468107526.2
2017-Sep-20 19:25N 31°41' E 121°11'946822999.9
2017-Sep-20 19:00N 40°43' W 074°03'946887623.5
2017-Sep-20 18:53N 31°41' E 121°11'946824174.2
2017-Sep-20 18:30N 40°43' W 074°03'0 0.0
2017-Sep-20 18:00N 40°43' W 074°03'0 0.0
2017-Sep-20 17:30N 40°43' W 074°03'0 0.0
2017-Sep-20 17:00N 40°43' W 074°03'0 0.0
2017-Sep-20 16:30N 40°43' W 074°03'946871011.6
2017-Sep-20 16:22N 31°41' E 121°11'946825783.3
2017-Sep-20 16:00N 40°43' W 074°03'946835579.9
2017-Sep-20 15:44N 31°41' E 121°11'946840578.1
2017-Sep-20 15:30N 40°43' W 074°03'946860328.5
2017-Sep-20 15:20N 31°41' E 121°11'946827622.1
2017-Sep-20 15:00N 40°43' W 074°03'946865549.7
2017-Sep-20 14:51N 31°41' E 121°11'946811056.1
2017-Sep-20 14:00N 40°43' W 074°03'0 0.0
2017-Sep-20 13:30N 40°43' W 074°03'946832618.5
2017-Sep-20 13:12N 31°41' E 121°11'946845147.5
2017-Sep-20 13:00N 40°43' W 074°03'946881157.9
2017-Sep-20 12:53N 31°41' E 121°11'946824700.2
2017-Sep-20 12:30N 40°43' W 074°03'9468106187.9
2017-Sep-20 12:25N 31°41' E 121°11'946823046.9
2017-Sep-20 12:00N 40°43' W 074°03'9468107868.1
2017-Sep-20 11:55N 31°41' E 121°11'946822969.2
2017-Sep-20 11:30N 40°43' W 074°03'9468387344.6
2017-Sep-20 11:28N 31°41' E 121°11'946819898.6
2017-Sep-20 11:00N 40°43' W 074°03'946867497.6
2017-Sep-20 10:51N 31°41' E 121°11'946826321.5
2017-Sep-20 10:30N 40°43' W 074°03'9468391796.9
2017-Sep-20 10:28N 31°41' E 121°11'946819910.2
2017-Sep-20 10:00N 40°43' W 074°03'9468104559.3
2017-Sep-20 09:54N 31°41' E 121°11'946823125.1
2017-Sep-20 09:30N 40°43' W 074°03'9468480089.1
2017-Sep-20 09:29N 31°41' E 121°11'946819703.1
2017-Sep-20 09:00N 40°43' W 074°03'9468643138.3
2017-Sep-20 08:59N 31°41' E 121°11'946818555.4
2017-Sep-20 08:28N 40°43' W 074°03'946888997.7
2017-Sep-20 08:22N 31°41' E 121°11'946824072.1
2017-Sep-20 07:58N 40°43' W 074°03'9468163090.4
2017-Sep-20 07:55N 31°41' E 121°11'946821424.2
2017-Sep-20 07:28N 40°43' W 074°03'9468436998.0
2017-Sep-20 07:27N 31°41' E 121°11'0 0.0
2017-Sep-20 07:00N 31°41' E 121°11'9468288862.7
2017-Sep-20 06:58N 40°43' W 074°03'0 0.0
2017-Sep-20 06:28N 40°43' W 074°03'0 0.0
2017-Sep-20 05:58N 40°43' W 074°03'0 0.0
2017-Sep-20 05:28N 40°43' W 074°03'0 0.0
2017-Sep-20 04:58N 40°43' W 074°03'946836494.2
2017-Sep-20 04:43N 31°41' E 121°11'946839359.8
2017-Sep-20 04:28N 40°43' W 074°03'0 0.0
2017-Sep-20 03:58N 40°43' W 074°03'946874422.7
2017-Sep-20 03:51N 31°41' E 121°11'0 0.0
2017-Sep-20 03:30N 31°41' E 121°11'9468362612.7
2017-Sep-20 03:28N 40°43' W 074°03'0 0.0
2017-Sep-20 02:58N 40°43' W 074°03'9468146289.9
2017-Sep-20 02:54N 31°41' E 121°11'0 0.2
2017-Sep-20 02:28N 31°41' E 121°11'94684260755.5
2017-Sep-20 02:28N 40°43' W 074°03'0 0.0
2017-Sep-20 01:58N 40°43' W 074°03'946850053.1
2017-Sep-20 01:47N 31°41' E 121°11'946830461.3
2017-Sep-20 01:28N 40°43' W 074°03'0 0.0
2017-Sep-20 00:58N 40°43' W 074°03'0 0.0
2017-Sep-20 00:28N 40°43' W 074°03'946826403.0
2017-Sep-20 00:07N 31°41' E 121°11'946866835.8
2017-Sep-19 23:58N 40°43' W 074°03'0 0.0
2017-Sep-19 23:28N 40°43' W 074°03'0 0.0
2017-Sep-19 22:58N 40°43' W 074°03'0 0.0
2017-Sep-19 22:28N 40°43' W 074°03'0 0.0
2017-Sep-19 21:58N 40°43' W 074°03'0 0.0
2017-Sep-19 21:28N 40°43' W 074°03'946820670.9
2017-Sep-19 21:01N 31°41' E 121°11'0 0.0
2017-Sep-19 21:00N 31°41' E 121°11'9468366518.9
2017-Sep-19 20:58N 40°43' W 074°03'0 0.0
2017-Sep-19 20:28N 40°43' W 074°03'0 0.0
2017-Sep-19 19:58N 40°43' W 074°03'0 0.0
2017-Sep-19 19:28N 40°43' W 074°03'9389103686.4
2017-Sep-19 19:23N 32°01' E 119°59'65180.4
2017-Sep-19 19:01N 31°41' E 121°11'9468183258.8
2017-Sep-19 18:58N 40°43' W 074°03'9394248663.6
2017-Sep-19 18:56N 31°58' E 120°02'625687.0
2017-Sep-19 18:55N 31°41' E 121°11'0 0.2
2017-Sep-19 18:31N 31°41' E 121°11'9468266293.0
2017-Sep-19 18:28N 40°43' W 074°03'939988343.3
2017-Sep-19 18:22N 31°57' E 120°06'2 6.1
2017-Sep-19 18:00N 31°57' E 120°09'9401398175.6
2017-Sep-19 17:58N 40°43' W 074°03'946894682.1
2017-Sep-19 17:52N 31°41' E 121°11'0 0.0
2017-Sep-19 17:30N 31°41' E 121°11'9468374566.2
2017-Sep-19 17:28N 40°43' W 074°03'940356795.9
2017-Sep-19 17:18N 31°57' E 120°10'49151.9
2017-Sep-19 16:59N 31°45' E 121°06'9460709509.1
2017-Sep-19 16:58N 40°43' W 074°03'94035641726.9
2017-Sep-19 16:58N 31°57' E 120°10'54249.6
2017-Sep-19 16:45N 31°41' E 121°11'0 0.0
2017-Sep-19 16:31N 31°41' E 121°11'9468268389.9
2017-Sep-19 16:28N 40°43' W 074°03'940367972.6
2017-Sep-19 16:20N 31°57' E 120°10'551477.5
2017-Sep-19 16:18N 31°41' E 121°12'55188.1
2017-Sep-19 16:00N 31°57' E 120°10'542206.9
2017-Sep-19 15:59N 31°41' E 121°11'9468921229.7
2017-Sep-19 15:58N 40°43' W 074°03'947581604.7
2017-Sep-19 15:51N 31°38' E 121°16'3 9.4
2017-Sep-19 15:30N 31°36' E 121°18'8349.4
2017-Sep-19 15:29N 31°41' E 121°11'9468896986.9
2017-Sep-19 15:28N 40°43' W 074°03'940384838.0
2017-Sep-19 15:22N 31°57' E 120°10'940324178.8
2017-Sep-19 14:58N 40°43' W 074°03'9468391787.7
2017-Sep-19 14:57N 31°41' E 121°11'54164.9
2017-Sep-19 14:37N 31°57' E 120°10'940363153.7
2017-Sep-19 14:28N 40°43' W 074°03'9403191245.1
2017-Sep-19 14:25N 31°57' E 120°10'940320856.7
2017-Sep-19 13:58N 40°43' W 074°03'9468568103.9
2017-Sep-19 13:57N 31°41' E 121°11'54376.5
2017-Sep-19 13:49N 31°57' E 120°10'940327678.2
2017-Sep-19 13:28N 40°43' W 074°03'9403307730.7
2017-Sep-19 13:27N 31°57' E 120°10'940320029.8
2017-Sep-19 12:58N 40°43' W 074°03'9468619751.0
2017-Sep-19 12:57N 31°41' E 121°11'54354.6
2017-Sep-19 12:48N 31°57' E 120°10'0 0.0
2017-Sep-19 12:30N 31°57' E 120°10'9403307730.9
2017-Sep-19 12:28N 40°43' W 074°03'940319017.0
2017-Sep-19 11:59N 31°57' E 120°10'94031991187.2
2017-Sep-19 11:58N 40°43' W 074°03'946893387.1
2017-Sep-19 11:52N 31°41' E 121°11'53144.1
2017-Sep-19 11:30N 31°57' E 120°12'9404294385.5
2017-Sep-19 11:28N 40°43' W 074°03'9468420818.3
2017-Sep-19 11:27N 31°41' E 121°11'946819817.6
2017-Sep-19 10:58N 40°43' W 074°03'9508151452.2
2017-Sep-19 10:55N 31°20' E 121°33'763076.0
2017-Sep-19 10:53N 31°57' E 120°14'74182.2
2017-Sep-19 10:29N 31°21' E 121°31'95051555344.5
2017-Sep-19 10:28N 40°43' W 074°03'9407338657.0
2017-Sep-19 10:27N 31°57' E 120°16'72163.6
2017-Sep-19 10:00N 31°23' E 121°30'9503267270.7
2017-Sep-19 09:58N 40°43' W 074°03'940934111.6
2017-Sep-19 09:42N 31°58' E 120°19'1 4.7
2017-Sep-19 09:30N 31°58' E 120°20'6818730.9
2017-Sep-19 09:30N 31°25' E 121°30'9500302667.3
2017-Sep-19 09:28N 40°43' W 074°03'946845327.5
2017-Sep-19 09:16N 31°41' E 121°11'1869.4
2017-Sep-19 09:00N 31°28' E 121°26'9494273418.5
2017-Sep-19 08:58N 40°43' W 074°03'946849544.0
2017-Sep-19 08:47N 31°41' E 121°11'946830819.4
2017-Sep-19 08:28N 40°43' W 074°03'0 0.0
2017-Sep-19 07:58N 40°43' W 074°03'963229791.0
2017-Sep-19 07:39N 29°56' E 122°17'963254523.2
2017-Sep-19 07:28N 40°43' W 074°03'963278454.1
2017-Sep-19 07:21N 29°56' E 122°17'963225554.0
2017-Sep-19 06:58N 40°43' W 074°03'9468279392.5
2017-Sep-19 06:56N 31°41' E 121°11'946820325.5
2017-Sep-19 06:28N 40°43' W 074°03'9468123498.8
2017-Sep-19 06:24N 31°41' E 121°11'222.2
2017-Sep-19 06:20N 31°41' E 121°09'946726666.9
2017-Sep-19 05:58N 40°43' W 074°03'0 0.0
2017-Sep-19 05:28N 40°43' W 074°03'9467231838.6
2017-Sep-19 05:26N 31°41' E 121°09'211.1
2017-Sep-19 05:18N 31°41' E 121°11'946829460.3
2017-Sep-19 04:58N 40°43' W 074°03'946875244.1
2017-Sep-19 04:51N 31°41' E 121°11'235.1
2017-Sep-19 04:48N 31°41' E 121°09'946728590.8
2017-Sep-19 04:28N 40°43' W 074°03'9467115136.1
2017-Sep-19 04:23N 31°41' E 121°09'0 0.0
2017-Sep-19 03:59N 31°41' E 121°09'94672130017.3
2017-Sep-19 03:58N 40°43' W 074°03'0 0.0
2017-Sep-19 03:28N 40°43' W 074°03'946733843.4
2017-Sep-19 03:12N 31°41' E 121°09'946742868.3
2017-Sep-19 02:58N 40°43' W 074°03'0 0.0
2017-Sep-19 02:28N 40°43' W 074°03'946854190.5
2017-Sep-19 02:18N 31°41' E 121°11'2 5.7
2017-Sep-19 02:02N 31°41' E 121°09'9467163847.4
2017-Sep-19 01:58N 40°43' W 074°03'9467106834.7
2017-Sep-19 01:53N 31°41' E 121°09'946722965.2
2017-Sep-19 01:28N 40°43' W 074°03'946757568.0
2017-Sep-19 01:18N 31°41' E 121°09'946728235.5
2017-Sep-19 00:58N 40°43' W 074°03'9467109231.7
2017-Sep-19 00:53N 31°41' E 121°09'2 6.3
2017-Sep-19 00:38N 31°41' E 121°11'946860977.2
2017-Sep-19 00:28N 40°43' W 074°03'94681136209.4
2017-Sep-19 00:28N 31°41' E 121°11'221.1
2017-Sep-19 00:23N 31°41' E 121°09'0 0.0
2017-Sep-18 23:59N 31°41' E 121°09'9467524312.0
2017-Sep-18 23:58N 40°43' W 074°03'0 0.0
2017-Sep-18 23:28N 40°43' W 074°03'9468228766.8
2017-Sep-18 23:26N 31°41' E 121°11'946820670.9
2017-Sep-18 22:58N 40°43' W 074°03'0 0.0
2017-Sep-18 22:28N 40°43' W 074°03'946739720.6
2017-Sep-18 22:14N 31°41' E 121°09'946736178.6
2017-Sep-18 21:58N 40°43' W 074°03'94671793698.8
2017-Sep-18 21:58N 31°41' E 121°09'946719146.2
2017-Sep-18 21:28N 40°43' W 074°03'9467145642.2
2017-Sep-18 21:24N 31°41' E 121°09'946721804.4
2017-Sep-18 20:58N 40°43' W 074°03'946780950.8
2017-Sep-18 20:51N 31°41' E 121°09'215.8
2017-Sep-18 20:45N 31°41' E 121°11'441995.2
2017-Sep-18 20:44N 31°58' E 120°23'44175.0
2017-Sep-18 20:29N 31°41' E 121°11'94682434732.7
2017-Sep-18 20:28N 40°43' W 074°03'9467145642.3
2017-Sep-18 20:25N 31°41' E 121°09'44922.9
2017-Sep-18 20:22N 31°58' E 120°21'46125.8
2017-Sep-18 20:00N 31°41' E 121°11'9468405788.5
2017-Sep-18 19:58N 40°43' W 074°03'94091209706.9
2017-Sep-18 19:58N 31°57' E 120°19'46992.3
2017-Sep-18 19:55N 31°41' E 121°09'946721247.1
2017-Sep-18 19:28N 40°43' W 074°03'9467486860.9
2017-Sep-18 19:27N 31°41' E 121°09'481211.3
2017-Sep-18 19:25N 31°56' E 120°16'50352.2
2017-Sep-18 19:16N 31°41' E 121°11'2 6.1
2017-Sep-18 19:00N 31°41' E 121°09'9467293795.5
2017-Sep-18 18:58N 40°43' W 074°03'9406100775.3
2017-Sep-18 18:53N 31°56' E 120°13'2 4.4
2017-Sep-18 18:30N 31°56' E 120°11'9404328686.5
2017-Sep-18 18:28N 40°43' W 074°03'9467120852.0
2017-Sep-18 18:24N 31°41' E 121°09'2 5.2
2017-Sep-18 18:06N 31°41' E 121°11'215.0
2017-Sep-18 18:00N 31°41' E 121°09'9467410605.7
2017-Sep-18 17:59N 40°43' W 074°03'946859279.1
2017-Sep-18 17:49N 31°41' E 121°11'946827644.4
2017-Sep-18 17:28N 40°43' W 074°03'940280397.6
2017-Sep-18 17:21N 31°57' E 120°09'55308.2
2017-Sep-18 17:11N 31°41' E 121°11'55312.5
2017-Sep-18 17:00N 31°57' E 120°09'551418.6
2017-Sep-18 16:58N 31°41' E 121°11'9468225731.8
2017-Sep-18 16:55N 40°43' W 074°03'946822876.2
2017-Sep-18 16:31N 31°41' E 121°11'9468264228.8
2017-Sep-18 16:28N 40°43' W 074°03'940246686.5
2017-Sep-18 16:16N 31°57' E 120°09'53234.1
2017-Sep-18 16:03N 31°41' E 121°09'232.6
2017-Sep-18 16:00N 31°41' E 121°11'9468396343.5
2017-Sep-18 15:58N 40°43' W 074°03'9467230272.1
2017-Sep-18 15:56N 31°41' E 121°09'53815.8
2017-Sep-18 15:52N 31°57' E 120°09'55146.4
2017-Sep-18 15:30N 31°41' E 121°11'9468473410.1
2017-Sep-18 15:28N 40°43' W 074°03'9402867890.8
2017-Sep-18 15:28N 31°57' E 120°09'53593.5
2017-Sep-18 15:22N 31°41' E 121°09'946723683.3
2017-Sep-18 14:58N 40°43' W 074°03'9468114766.1
2017-Sep-18 14:53N 31°41' E 121°11'229.6
2017-Sep-18 14:50N 31°41' E 121°09'531742.7
2017-Sep-18 14:48N 31°57' E 120°09'940228042.9
2017-Sep-18 14:28N 40°43' W 074°03'9402120454.6
2017-Sep-18 14:24N 31°57' E 120°09'55371.7
2017-Sep-18 14:15N 31°41' E 121°11'946834464.7
2017-Sep-18 13:58N 40°43' W 074°03'9468426069.0
2017-Sep-18 13:57N 31°41' E 121°11'55511.7
2017-Sep-18 13:51N 31°57' E 120°09'53153.0
2017-Sep-18 13:30N 31°41' E 121°09'9467431395.9
2017-Sep-18 13:28N 40°43' W 074°03'9468125314.2
2017-Sep-18 13:24N 31°41' E 121°11'946822263.5
2017-Sep-18 12:58N 40°43' W 074°03'946740284.0
2017-Sep-18 12:44N 31°41' E 121°09'53274.3
2017-Sep-18 12:33N 31°57' E 120°09'531134.4
2017-Sep-18 12:30N 31°41' E 121°09'9467396282.6
2017-Sep-18 12:28N 40°43' W 074°03'940235517.1
2017-Sep-18 12:12N 31°57' E 120°09'940239961.9
2017-Sep-18 11:58N 40°43' W 074°03'9467214341.5
2017-Sep-18 11:56N 31°41' E 121°09'946720768.0
2017-Sep-18 11:28N 40°43' W 074°03'9402417873.3
2017-Sep-18 11:27N 31°57' E 120°09'53400.2
2017-Sep-18 11:19N 31°41' E 121°09'53164.7
2017-Sep-18 11:00N 31°57' E 120°09'9402445364.9
2017-Sep-18 10:58N 40°43' W 074°03'9467366454.8
2017-Sep-18 10:57N 31°41' E 121°09'946719965.0
2017-Sep-18 10:28N 40°43' W 074°03'9467111010.7
2017-Sep-18 10:23N 31°41' E 121°09'53647.7
2017-Sep-18 10:18N 31°57' E 120°09'940228324.4
2017-Sep-18 09:58N 40°43' W 074°03'94671217152.7
2017-Sep-18 09:58N 31°41' E 121°09'53174.3
2017-Sep-18 09:40N 31°57' E 120°09'0 0.0
2017-Sep-18 09:29N 31°57' E 120°09'9402650913.8
2017-Sep-18 09:28N 40°43' W 074°03'946731585.1
2017-Sep-18 09:10N 31°41' E 121°09'946747202.6
2017-Sep-18 08:58N 40°43' W 074°03'9467137420.5
2017-Sep-18 08:54N 31°41' E 121°09'53381.5
2017-Sep-18 08:46N 31°57' E 120°09'940232359.0
2017-Sep-18 08:28N 40°43' W 074°03'94024230931.7
2017-Sep-18 08:28N 31°57' E 120°09'53354.7
2017-Sep-18 08:19N 31°41' E 121°09'219.0
2017-Sep-18 08:14N 31°41' E 121°11'946836146.6
2017-Sep-18 07:58N 40°43' W 074°03'946766304.0
2017-Sep-18 07:50N 31°41' E 121°09'229.8
2017-Sep-18 07:47N 31°41' E 121°11'55451.4
2017-Sep-18 07:39N 31°57' E 120°09'940252314.3
2017-Sep-18 07:28N 40°43' W 074°03'9468250634.4
2017-Sep-18 07:26N 31°41' E 121°11'55280.4
2017-Sep-18 07:14N 31°57' E 120°09'531380.8
2017-Sep-18 07:12N 31°41' E 121°09'0 0.0
2017-Sep-18 06:59N 31°41' E 121°09'94671893348.7
2017-Sep-18 06:58N 40°43' W 074°03'946719157.0
2017-Sep-18 06:29N 31°41' E 121°09'9467946673.9
2017-Sep-18 06:28N 40°43' W 074°03'946892877.1
2017-Sep-18 06:22N 31°41' E 121°11'55157.6
2017-Sep-18 06:01N 31°57' E 120°09'9402190152.0
2017-Sep-18 05:58N 40°43' W 074°03'94681481984.1
2017-Sep-18 05:58N 31°41' E 121°11'219.8
2017-Sep-18 05:53N 31°41' E 121°09'53825.5
2017-Sep-18 05:49N 31°57' E 120°09'940226777.9
2017-Sep-18 05:28N 40°43' W 074°03'9402914794.8
2017-Sep-18 05:27N 31°56' E 120°09'531764.3
2017-Sep-18 05:26N 31°41' E 121°09'217.5
2017-Sep-18 05:20N 31°41' E 121°11'946825437.1
2017-Sep-18 04:58N 40°43' W 074°03'9402214223.9
2017-Sep-18 04:55N 31°56' E 120°09'531373.7
2017-Sep-18 04:53N 31°41' E 121°09'2 4.0
2017-Sep-18 04:30N 31°41' E 121°11'9468245220.1
2017-Sep-18 04:28N 40°43' W 074°03'9467312662.9
2017-Sep-18 04:26N 31°41' E 121°09'53118.1
2017-Sep-18 03:59N 31°56' E 120°09'9402554875.1
2017-Sep-18 03:58N 40°43' W 074°03'9468243468.5
2017-Sep-18 03:56N 31°41' E 121°11'212.7
2017-Sep-18 03:49N 31°41' E 121°09'946727775.3
2017-Sep-18 03:28N 40°43' W 074°03'9467774551.7
2017-Sep-18 03:27N 31°41' E 121°09'0 0.0
2017-Sep-18 03:01N 31°41' E 121°09'9467236668.6
2017-Sep-18 02:58N 40°43' W 074°03'0 0.0
2017-Sep-18 02:28N 40°43' W 074°03'946721461.1
2017-Sep-18 02:02N 31°41' E 121°09'9467161517.9
2017-Sep-18 01:58N 40°43' W 074°03'9467501180.5
2017-Sep-18 01:57N 31°41' E 121°09'946719688.2
2017-Sep-18 01:28N 40°43' W 074°03'946777631.6
2017-Sep-18 01:21N 31°41' E 121°09'53142.8
2017-Sep-18 00:58N 31°56' E 120°09'94022115461.5
2017-Sep-18 00:58N 40°43' W 074°03'946719287.1
2017-Sep-18 00:29N 31°41' E 121°09'94671175182.8
2017-Sep-18 00:28N 40°43' W 074°03'9402103508.8
2017-Sep-18 00:23N 31°56' E 120°09'940222916.3
2017-Sep-17 23:58N 40°43' W 074°03'0 0.0
2017-Sep-17 23:28N 40°43' W 074°03'940238594.5
2017-Sep-17 23:13N 31°56' E 120°09'940236631.4
2017-Sep-17 22:58N 40°43' W 074°03'940241684.0
2017-Sep-17 22:45N 31°56' E 120°09'940234258.5
2017-Sep-17 22:28N 40°43' W 074°03'9467415613.1
2017-Sep-17 22:27N 31°41' E 121°09'53429.3
2017-Sep-17 22:19N 31°56' E 120°09'940226672.5
2017-Sep-17 21:58N 40°43' W 074°03'9467681605.5
2017-Sep-17 21:57N 31°41' E 121°09'946719485.6
2017-Sep-17 21:28N 40°43' W 074°03'946775398.8
2017-Sep-17 21:21N 31°41' E 121°09'2190.1
2017-Sep-17 21:20N 31°41' E 121°11'554401.6
2017-Sep-17 21:19N 31°57' E 120°09'940226567.8
2017-Sep-17 20:58N 40°43' W 074°03'9402279730.4
2017-Sep-17 20:56N 31°56' E 120°09'940220207.4
2017-Sep-17 20:28N 40°43' W 074°03'9402371938.8
2017-Sep-17 20:27N 31°56' E 120°08'542459.1
2017-Sep-17 20:25N 31°41' E 121°09'946720857.0
2017-Sep-17 19:58N 40°43' W 074°03'939992952.7
2017-Sep-17 19:52N 31°57' E 120°05'939923578.2
2017-Sep-17 19:28N 40°43' W 074°03'9396402692.9
2017-Sep-17 19:27N 31°58' E 120°03'59795.5
2017-Sep-17 19:22N 31°41' E 121°09'60154.0
2017-Sep-17 18:59N 31°58' E 120°01'9394768606.2
2017-Sep-17 18:58N 40°43' W 074°03'9467973722.2
2017-Sep-17 18:58N 31°41' E 121°09'0 0.0
2017-Sep-17 18:29N 31°41' E 121°09'9467568004.3
2017-Sep-17 18:28N 40°43' W 074°03'0 0.0
2017-Sep-17 17:58N 40°43' W 074°03'946822907.3
2017-Sep-17 17:33N 31°41' E 121°11'0 0.1
2017-Sep-17 17:29N 31°41' E 121°11'94681262447.2
2017-Sep-17 17:28N 40°43' W 074°03'0 0.0
2017-Sep-17 16:58N 40°43' W 074°03'93833377737.3
2017-Sep-17 16:58N 32°04' E 119°55'68707.7
2017-Sep-17 16:52N 31°41' E 121°11'0 0.0
2017-Sep-17 16:29N 31°41' E 121°11'9468493993.4
2017-Sep-17 16:28N 40°43' W 074°03'0 0.0
2017-Sep-17 15:58N 40°43' W 074°03'94682840463.9
2017-Sep-17 15:58N 31°41' E 121°11'2 4.6
2017-Sep-17 15:38N 31°41' E 121°09'0 0.0
2017-Sep-17 15:28N 31°41' E 121°09'94673098205.4
2017-Sep-17 15:28N 40°43' W 074°03'946829847.3
2017-Sep-17 15:09N 31°41' E 121°11'2 9.5
2017-Sep-17 14:59N 31°41' E 121°09'9467448424.7
2017-Sep-17 14:58N 40°43' W 074°03'9468256282.5
2017-Sep-17 14:56N 31°41' E 121°11'2 3.4
2017-Sep-17 14:29N 31°41' E 121°09'9467725112.3
2017-Sep-17 14:28N 40°43' W 074°03'0 0.0
2017-Sep-17 13:58N 40°43' W 074°03'9467774551.7
2017-Sep-17 13:57N 31°41' E 121°09'223.5
2017-Sep-17 13:53N 31°41' E 121°11'1211749.9
2017-Sep-17 13:49N 29°58' E 122°24'121382.4
2017-Sep-17 13:30N 31°41' E 121°11'9468246996.9
2017-Sep-17 13:28N 40°43' W 074°03'946788982.4
2017-Sep-17 13:22N 31°41' E 121°09'121482.6
2017-Sep-17 13:07N 29°55' E 122°18'1 7.1
2017-Sep-17 12:59N 29°55' E 122°17'9634412876.1
2017-Sep-17 12:58N 40°43' W 074°03'94674260034.6
2017-Sep-17 12:58N 31°41' E 121°09'259.3
2017-Sep-17 12:56N 31°41' E 121°11'119274.9
2017-Sep-17 12:30N 29°56' E 122°16'11914301.5
2017-Sep-17 12:30N 31°41' E 121°11'9468119182.4
2017-Sep-17 12:25N 40°43' W 074°03'946746942.5
2017-Sep-17 12:13N 31°41' E 121°09'2 6.9
2017-Sep-17 11:59N 31°41' E 121°11'9468874008.4
2017-Sep-17 11:58N 40°43' W 074°03'9633182511.3
2017-Sep-17 11:55N 29°56' E 122°16'1203485.3
2017-Sep-17 11:53N 31°41' E 121°09'946722949.7
2017-Sep-17 11:28N 40°43' W 074°03'96331155904.1
2017-Sep-17 11:28N 29°56' E 122°16'0 0.0
2017-Sep-17 10:59N 29°56' E 122°16'9633509957.3
2017-Sep-17 10:58N 40°43' W 074°03'0 0.0
2017-Sep-17 10:28N 40°43' W 074°03'96331019920.4
2017-Sep-17 10:28N 29°56' E 122°16'119325.5
2017-Sep-17 10:06N 31°41' E 121°11'0 0.0
2017-Sep-17 10:00N 31°41' E 121°11'11925232.9
2017-Sep-17 10:00N 29°56' E 122°16'9633357496.1
2017-Sep-17 09:58N 40°43' W 074°03'946732488.4
2017-Sep-17 09:41N 31°42' E 121°10'0 2.6
2017-Sep-17 09:30N 31°42' E 121°10'1204052.5
2017-Sep-17 09:28N 29°56' E 122°16'9633169986.7
2017-Sep-17 09:25N 40°43' W 074°03'963322919.5
2017-Sep-17 09:00N 29°56' E 122°16'1191702.5
2017-Sep-17 08:56N 31°41' E 121°11'94681032918.3
2017-Sep-17 08:55N 40°43' W 074°03'0 0.0
2017-Sep-17 08:28N 40°43' W 074°03'9633100223.3
2017-Sep-17 08:22N 29°56' E 122°16'1195645.1
2017-Sep-17 08:21N 31°41' E 121°11'946825305.3
2017-Sep-17 07:59N 40°43' W 074°03'9633357498.1
2017-Sep-17 07:57N 29°56' E 122°16'0 0.1
2017-Sep-17 07:30N 29°56' E 122°16'9633268817.9
2017-Sep-17 07:28N 40°43' W 074°03'946876085.5
2017-Sep-17 07:21N 31°41' E 121°11'110.3
2017-Sep-17 07:12N 31°42' E 121°10'946646429.2
2017-Sep-17 07:00N 40°43' W 074°03'9633346775.3
2017-Sep-17 06:58N 29°56' E 122°16'1196603.9
2017-Sep-17 06:57N 31°41' E 121°11'111.8
2017-Sep-17 06:50N 31°42' E 121°10'55186.4
2017-Sep-17 06:32N 31°57' E 120°08'9400201439.1
2017-Sep-17 06:30N 40°43' W 074°03'9466210364.4
2017-Sep-17 06:27N 31°42' E 121°10'121980.1
2017-Sep-17 06:20N 29°56' E 122°16'1621874.7
2017-Sep-17 06:14N 31°56' E 120°09'940238333.9
2017-Sep-17 06:00N 40°43' W 074°03'94042115860.8
2017-Sep-17 05:59N 31°56' E 120°11'52344.6
2017-Sep-17 05:50N 31°42' E 121°10'1 6.1
2017-Sep-17 05:36N 31°41' E 121°11'1192787.1
2017-Sep-17 05:34N 29°56' E 122°16'1212000.9
2017-Sep-17 05:30N 31°42' E 121°10'94661262185.5
2017-Sep-17 05:30N 40°43' W 074°03'9633291407.5
2017-Sep-17 05:28N 29°56' E 122°16'1194087.6
2017-Sep-17 05:26N 31°41' E 121°11'50273.7
2017-Sep-17 05:15N 31°57' E 120°15'940736889.3
2017-Sep-17 05:00N 40°43' W 074°03'9407204016.7
2017-Sep-17 04:57N 31°57' E 120°17'48475.9
2017-Sep-17 04:51N 31°42' E 121°10'1 7.4
2017-Sep-17 04:39N 31°41' E 121°11'946860760.0
2017-Sep-17 04:30N 40°43' W 074°03'9466279333.4
2017-Sep-17 04:28N 31°42' E 121°10'121818.1
2017-Sep-17 04:19N 29°56' E 122°16'119397.3
2017-Sep-17 04:01N 31°41' E 121°11'9468516452.5
2017-Sep-17 04:00N 40°43' W 074°03'9466587562.5
2017-Sep-17 03:59N 31°42' E 121°10'1 8.1
2017-Sep-17 03:48N 31°41' E 121°11'946830379.5
2017-Sep-17 03:30N 40°43' W 074°03'946655593.2
2017-Sep-17 03:19N 31°42' E 121°10'121958.3
2017-Sep-17 03:12N 29°56' E 122°17'963347310.3
2017-Sep-17 03:00N 40°43' W 074°03'96331333786.0
2017-Sep-17 02:59N 29°56' E 122°17'1211011.8
2017-Sep-17 02:52N 31°42' E 121°10'946625356.1
2017-Sep-17 02:30N 40°43' W 074°03'946694400.6
2017-Sep-17 02:24N 31°42' E 121°10'110.9
2017-Sep-17 02:16N 31°41' E 121°11'946835140.0
2017-Sep-17 02:00N 40°43' W 074°03'9633679965.5
2017-Sep-17 01:59N 29°56' E 122°17'119986.1
2017-Sep-17 01:52N 31°41' E 121°11'1171.3
2017-Sep-17 01:51N 31°42' E 121°10'946626541.0
2017-Sep-17 01:30N 40°43' W 074°03'96331733915.5
2017-Sep-17 01:29N 29°56' E 122°17'1211412.6
2017-Sep-17 01:24N 31°42' E 121°10'2 8.7
2017-Sep-17 01:14N 31°41' E 121°11'946840007.2
2017-Sep-17 01:00N 40°43' W 074°03'946687832.5
2017-Sep-17 00:53N 31°42' E 121°10'1215175.6
2017-Sep-17 00:52N 29°56' E 122°17'963324841.1
2017-Sep-17 00:29N 40°43' W 074°03'9466258174.3
2017-Sep-17 00:26N 31°42' E 121°10'1214724.1
2017-Sep-17 00:25N 29°56' E 122°17'963321646.7
2017-Sep-16 23:58N 40°43' W 074°03'96332889836.6
2017-Sep-16 23:58N 29°56' E 122°17'121501.2
2017-Sep-16 23:43N 31°42' E 121°10'946636962.1
2017-Sep-16 23:28N 40°43' W 074°03'9633577966.6
2017-Sep-16 23:27N 29°56' E 122°17'1211241.5
2017-Sep-16 23:21N 31°42' E 121°10'0 0.0
2017-Sep-16 22:59N 31°42' E 121°10'9466597877.7
2017-Sep-16 22:58N 40°43' W 074°03'963375716.1
2017-Sep-16 22:50N 29°56' E 122°17'0 0.0
2017-Sep-16 22:30N 29°56' E 122°17'12119751.8
2017-Sep-16 22:30N 31°42' E 121°10'9466283991.9
2017-Sep-16 22:28N 40°43' W 074°03'0 0.0
2017-Sep-16 21:58N 40°43' W 074°03'9466540937.0
2017-Sep-16 21:57N 31°42' E 121°10'1211165.3
2017-Sep-16 21:51N 29°56' E 122°17'963325479.9
2017-Sep-16 21:28N 40°43' W 074°03'9466218455.3
2017-Sep-16 21:26N 31°42' E 121°10'1219656.4
2017-Sep-16 21:25N 29°56' E 122°17'963321646.7
2017-Sep-16 20:58N 40°43' W 074°03'9633309625.5
2017-Sep-16 20:56N 29°56' E 122°17'1216208.3
2017-Sep-16 20:55N 31°42' E 121°10'115.0
2017-Sep-16 20:49N 31°41' E 121°11'119350.8
2017-Sep-16 20:29N 29°56' E 122°17'9633737834.0
2017-Sep-16 20:28N 40°43' W 074°03'94661135967.7
2017-Sep-16 20:28N 31°42' E 121°10'121245.1
2017-Sep-16 19:58N 29°56' E 122°17'963334678325.7
2017-Sep-16 19:58N 40°43' W 074°03'946632611.5
2017-Sep-16 19:41N 31°42' E 121°10'946645197.7
2017-Sep-16 19:28N 40°43' W 074°03'9633327154.5
2017-Sep-16 19:26N 29°56' E 122°17'121862.7
2017-Sep-16 19:18N 31°42' E 121°10'1 6.1
2017-Sep-16 19:04N 31°41' E 121°11'1192097.0
2017-Sep-16 19:01N 29°56' E 122°17'9633234313.8
2017-Sep-16 18:58N 40°43' W 074°03'9466167054.1
2017-Sep-16 18:55N 31°42' E 121°10'114.7
2017-Sep-16 18:49N 31°41' E 121°11'119385.8
2017-Sep-16 18:30N 29°56' E 122°17'1213623.0
2017-Sep-16 18:28N 31°42' E 121°10'94662434216.5
2017-Sep-16 18:28N 40°43' W 074°03'946856248.0
2017-Sep-16 18:18N 31°41' E 121°11'119404.3
2017-Sep-16 18:00N 29°56' E 122°17'1218202.7
2017-Sep-16 17:59N 31°42' E 121°10'9466436910.6
2017-Sep-16 17:58N 40°43' W 074°03'946829537.5
2017-Sep-16 17:39N 31°41' E 121°11'946852683.6
2017-Sep-16 17:28N 40°43' W 074°03'9633937251.6
2017-Sep-16 17:27N 29°56' E 122°17'119411.3
2017-Sep-16 17:10N 31°41' E 121°11'119737.1
2017-Sep-16 17:00N 29°56' E 122°17'9633256876.0
2017-Sep-16 16:58N 40°43' W 074°03'9468150824.5
2017-Sep-16 16:54N 31°41' E 121°11'120.8
2017-Sep-16 16:50N 31°42' E 121°10'121366.3
2017-Sep-16 16:30N 29°56' E 122°17'9633247702.0
2017-Sep-16 16:28N 40°43' W 074°03'9466262146.2
2017-Sep-16 16:26N 31°42' E 121°10'121283.6
2017-Sep-16 16:00N 29°56' E 122°17'9633254987.5
2017-Sep-16 15:58N 40°43' W 074°03'946622840.9
2017-Sep-16 15:33N 31°42' E 121°10'1212081.3
2017-Sep-16 15:30N 29°56' E 122°17'9633350285.9
2017-Sep-16 15:28N 40°43' W 074°03'9466358722.4
2017-Sep-16 15:26N 31°42' E 121°10'121272.1
2017-Sep-16 15:00N 29°56' E 122°17'9633333445.5
2017-Sep-16 14:58N 40°43' W 074°03'9466181269.2
2017-Sep-16 14:55N 31°42' E 121°10'121278.0
2017-Sep-16 14:29N 29°56' E 122°17'9633707721.0
2017-Sep-16 14:28N 40°43' W 074°03'9466138530.9
2017-Sep-16 14:24N 31°42' E 121°10'1 5.0
2017-Sep-16 14:07N 31°41' E 121°11'120887.0
2017-Sep-16 13:59N 29°56' E 122°17'9633450367.9
2017-Sep-16 13:58N 40°43' W 074°03'9468160781.4
2017-Sep-16 13:55N 31°41' E 121°11'132.1
2017-Sep-16 13:52N 31°42' E 121°10'946623781.3
2017-Sep-16 13:28N 40°43' W 074°03'9468396345.4
2017-Sep-16 13:27N 31°41' E 121°11'11915364.2
2017-Sep-16 13:26N 29°56' E 122°17'121399.9
2017-Sep-16 13:08N 31°42' E 121°10'0 0.0
2017-Sep-16 13:00N 31°42' E 121°10'148.8
2017-Sep-16 12:59N 31°41' E 121°11'94681136191.1
2017-Sep-16 12:58N 40°43' W 074°03'9633100517.0
2017-Sep-16 12:52N 29°56' E 122°17'121322.0
2017-Sep-16 12:30N 31°42' E 121°10'183.4
2017-Sep-16 12:29N 31°41' E 121°11'9468852149.5
2017-Sep-16 12:28N 40°43' W 074°03'9633129881.8
2017-Sep-16 12:24N 29°56' E 122°17'963322636.1
2017-Sep-16 11:58N 40°43' W 074°03'9633145707.7
2017-Sep-16 11:54N 29°56' E 122°17'1191990.4
2017-Sep-16 11:51N 31°41' E 121°11'119330.3
2017-Sep-16 11:29N 29°56' E 122°17'9633737834.0
2017-Sep-16 11:28N 40°43' W 074°03'94682434728.5
2017-Sep-16 11:28N 31°41' E 121°11'946819085.2
2017-Sep-16 10:58N 40°43' W 074°03'9633262712.3
2017-Sep-16 10:56N 29°56' E 122°17'1191609.1
2017-Sep-16 10:51N 31°41' E 121°11'119318.0
2017-Sep-16 10:29N 29°55' E 122°16'9633937231.4
2017-Sep-16 10:28N 40°43' W 074°03'9468102054.5
2017-Sep-16 10:23N 31°41' E 121°11'120323.3
2017-Sep-16 10:00N 29°53' E 122°12'9632249471.5
2017-Sep-16 09:58N 40°43' W 074°03'963220863.8
2017-Sep-16 09:30N 29°50' E 122°08'9632258773.2
2017-Sep-16 09:28N 40°43' W 074°03'963219669.3
2017-Sep-16 08:59N 29°46' E 122°04'9632845778.4
2017-Sep-16 08:58N 40°43' W 074°03'946822380.9
2017-Sep-16 08:33N 31°41' E 121°11'0 0.7
2017-Sep-16 08:29N 31°41' E 121°11'94681262456.6
2017-Sep-16 08:28N 40°43' W 074°03'963885246.6
2017-Sep-16 08:21N 29°41' E 122°03'128368.3
2017-Sep-16 08:00N 31°41' E 121°11'9468243473.8
2017-Sep-16 07:58N 40°43' W 074°03'9643619923.5
2017-Sep-16 07:57N 29°37' E 122°05'964319940.1
2017-Sep-16 07:28N 40°43' W 074°03'0 0.0
2017-Sep-16 06:58N 40°43' W 074°03'0 0.0
2017-Sep-16 06:28N 40°43' W 074°03'9468163092.5
2017-Sep-16 06:25N 31°41' E 121°11'0 0.1
2017-Sep-16 06:00N 31°41' E 121°11'9468374572.4
2017-Sep-16 05:58N 40°43' W 074°03'0 0.0
2017-Sep-16 05:28N 40°43' W 074°03'0 0.0
2017-Sep-16 04:58N 40°43' W 074°03'0 0.0
2017-Sep-16 04:28N 40°43' W 074°03'0 0.0
2017-Sep-16 03:58N 40°43' W 074°03'0 0.0
2017-Sep-16 03:28N 40°43' W 074°03'0 0.0
2017-Sep-16 02:58N 40°43' W 074°03'0 0.0
2017-Sep-16 02:28N 40°43' W 074°03'0 0.0
2017-Sep-16 01:58N 40°43' W 074°03'0 0.0
2017-Sep-16 01:28N 40°43' W 074°03'0 0.0
2017-Sep-16 00:58N 40°43' W 074°03'0 0.0
2017-Sep-16 00:28N 40°43' W 074°03'0 0.0
2017-Sep-15 23:58N 40°43' W 074°03'0 0.0
2017-Sep-15 23:28N 40°43' W 074°03'0 0.0
2017-Sep-15 22:58N 40°43' W 074°03'0 0.0
2017-Sep-15 22:28N 40°43' W 074°03'0 0.0
2017-Sep-15 21:58N 40°43' W 074°03'0 0.0
2017-Sep-15 21:28N 40°43' W 074°03'0 0.0
2017-Sep-15 20:58N 40°43' W 074°03'0 0.0
2017-Sep-15 20:28N 40°43' W 074°03'0 0.0
2017-Sep-15 19:58N 40°43' W 074°03'0 0.0
2017-Sep-15 19:28N 40°43' W 074°03'0 0.0
2017-Sep-15 18:58N 40°43' W 074°03'0 0.0
2017-Sep-15 18:29N 40°43' W 074°03'0 0.0
2017-Sep-15 17:59N 40°43' W 074°03'0 0.0
2017-Sep-15 17:29N 40°43' W 074°03'0 0.0
2017-Sep-15 16:59N 40°43' W 074°03'0 0.0
2017-Sep-15 16:29N 40°43' W 074°03'0 0.0
2017-Sep-15 15:59N 40°43' W 074°03'0 0.0
2017-Sep-15 15:29N 40°43' W 074°03'0 0.0
2017-Sep-15 14:59N 40°43' W 074°03'0 0.0
2017-Sep-15 14:29N 40°43' W 074°03'902921553.6
2017-Sep-15 14:04N 38°52' E 121°45'9029112466.6
2017-Sep-15 13:59N 40°43' W 074°03'0 0.0
2017-Sep-15 13:29N 40°43' W 074°03'0 0.0
2017-Sep-15 12:59N 40°43' W 074°03'0 0.0
2017-Sep-15 12:29N 40°43' W 074°03'0 0.0
2017-Sep-15 11:59N 40°43' W 074°03'0 0.0
2017-Sep-15 11:29N 40°43' W 074°03'0 0.0
2017-Sep-15 10:59N 40°43' W 074°03'0 0.0
2017-Sep-15 10:29N 40°43' W 074°03'0 0.0
2017-Sep-15 09:59N 40°43' W 074°03'0 0.0
2017-Sep-15 09:29N 40°43' W 074°03'0 0.0
2017-Sep-15 08:59N 40°43' W 074°03'0 0.0
2017-Sep-15 08:29N 40°43' W 074°03'0 0.0
2017-Sep-15 07:59N 40°43' W 074°03'0 0.0
2017-Sep-15 07:29N 40°43' W 074°03'0 0.0
2017-Sep-15 06:59N 40°43' W 074°03'0 0.0
2017-Sep-15 06:29N 40°43' W 074°03'0 0.0
2017-Sep-15 05:59N 40°43' W 074°03'0 0.0
2017-Sep-15 05:29N 40°43' W 074°03'0 0.0
2017-Sep-15 04:59N 40°43' W 074°03'0 0.0
2017-Sep-15 04:26N 40°43' W 074°03'0 0.0
2017-Sep-15 03:59N 40°43' W 074°03'0 0.0
2017-Sep-15 03:29N 40°43' W 074°03'0 0.0
2017-Sep-15 02:59N 40°43' W 074°03'950332957.3
2017-Sep-15 02:42N 31°08' E 121°10'950344777.1
2017-Sep-15 02:29N 40°43' W 074°03'9501107219.5
2017-Sep-15 02:24N 31°09' E 121°09'2 5.6
2017-Sep-15 02:00N 31°11' E 121°09'9498474921.7
2017-Sep-15 01:59N 40°43' W 074°03'0 0.0
2017-Sep-15 01:29N 40°43' W 074°03'0 0.0
2017-Sep-15 00:59N 40°43' W 074°03'  
Track history (hours):
 
Tides and Currents Weather Stations Pressure Air Temp Water Temp Dewpoint Dewpoint Depression Visibility Wind Speed Wind Dir Waves Ship Positions

Wake-n-waves

Last reported at 2017-Sep-25 00:30 UTC. Time now 2017-Sep-25 00:33 UTC.
Position N 22°53' E 113°30'.

Length 17 m.

Type: Pleasure craft. MMSI: 338025702.

Date/timePositionNaut miles runAvg speedWind from/ knotsBaromVisibWave heightAir tempDewpointWater temp
2017-Sep-25 00:30N 22°53' E 113°30'63384388.2
2017-Sep-25 00:30N 29°56' E 122°17'963317338955.8
2017-Sep-25 00:30N 40°43' W 074°03'940376416.0
2017-Sep-25 00:23N 31°57' E 120°11'6491737.9
2017-Sep-25 00:00N 22°53' E 113°30'96232886996.8
2017-Sep-25 00:00N 40°43' W 074°03'963317338955.8
2017-Sep-25 00:00N 29°56' E 122°17'161115630.6
2017-Sep-25 00:00N 31°57' E 120°13'6501324.7
2017-Sep-24 23:30N 22°53' E 113°30'633108504.0
2017-Sep-24 23:30N 29°56' E 122°17'96334954023.0
2017-Sep-24 23:30N 40°43' W 074°03'940777675.6
2017-Sep-24 23:23N 31°57' E 120°17'6521760.7
2017-Sep-24 23:00N 22°53' E 113°30'96231332460.1
2017-Sep-24 23:00N 40°43' W 074°03'9633937252.2
2017-Sep-24 22:59N 29°56' E 122°17'1583721.4
2017-Sep-24 22:57N 31°58' E 120°19'6541486.2
2017-Sep-24 22:30N 22°53' E 113°30'96231237285.1
2017-Sep-24 22:30N 40°43' W 074°03'9633990808.2
2017-Sep-24 22:29N 29°56' E 122°17'1576347.8
2017-Sep-24 22:28N 31°58' E 120°22'6561426.8
2017-Sep-24 22:00N 22°53' E 113°30'96231649712.6
2017-Sep-24 22:00N 40°43' W 074°03'96331238504.1
2017-Sep-24 21:59N 29°56' E 122°17'6331310.3
2017-Sep-24 21:31N 22°53' E 113°30'96231049817.0
2017-Sep-24 21:30N 40°43' W 074°03'9633679963.8
2017-Sep-24 21:29N 29°56' E 122°17'6331325.5
2017-Sep-24 21:00N 22°53' E 113°30'63391141.7
2017-Sep-24 21:00N 29°56' E 122°17'96336935644.9
2017-Sep-24 21:00N 40°43' W 074°03'962319539.8
2017-Sep-24 20:30N 22°53' E 113°30'63387637.9
2017-Sep-24 20:30N 29°56' E 122°17'963317339112.2
2017-Sep-24 20:30N 40°43' W 074°03'962319540.0
2017-Sep-24 20:00N 22°53' E 113°30'63391136.0
2017-Sep-24 20:00N 29°56' E 122°17'9633191592.1
2017-Sep-24 19:57N 40°43' W 074°03'962321693.3
2017-Sep-24 19:30N 22°53' E 113°30'96231443509.5
2017-Sep-24 19:30N 40°43' W 074°03'96331576287.8
2017-Sep-24 19:30N 29°56' E 122°17'6331301.4
2017-Sep-24 19:00N 22°53' E 113°30'96231385770.9
2017-Sep-24 19:00N 40°43' W 074°03'9633262713.7
2017-Sep-24 18:58N 29°56' E 122°17'6331392.7
2017-Sep-24 18:31N 22°53' E 113°30'96231049826.3
2017-Sep-24 18:30N 40°43' W 074°03'96353468470.5
2017-Sep-24 18:30N 29°55' E 122°18'963519366.1
2017-Sep-24 18:00N 40°43' W 074°03'96233149477.4
2017-Sep-24 18:00N 22°53' E 113°30'0 0.0
2017-Sep-24 17:30N 22°53' E 113°30'9623167363.6
2017-Sep-24 17:27N 40°43' W 074°03'962321652.7
2017-Sep-24 17:00N 22°53' E 113°30'96231574739.5
2017-Sep-24 17:00N 40°43' W 074°03'962319463.1
2017-Sep-24 16:30N 22°53' E 113°30'96232037898.2
2017-Sep-24 16:30N 40°43' W 074°03'962319267.1
2017-Sep-24 16:00N 22°54' E 113°30'96238660545.6
2017-Sep-24 16:00N 40°43' W 074°03'962019566.9
2017-Sep-24 15:30N 22°54' E 113°28'96201236910.2
2017-Sep-24 15:30N 40°43' W 074°03'0 0.0
2017-Sep-24 15:00N 40°43' W 074°03'96182473209.1
2017-Sep-24 15:00N 22°55' E 113°25'6583268.4
2017-Sep-24 14:48N 31°58' E 120°24'6602303.8
2017-Sep-24 14:30N 22°54' E 113°23'96161153932.1
2017-Sep-24 14:30N 40°43' W 074°03'0 0.0
2017-Sep-24 14:00N 40°43' W 074°03'9615736433.1
2017-Sep-24 13:59N 22°53' E 113°20'961519733.4
2017-Sep-24 13:30N 40°43' W 074°03'9612449391.2
2017-Sep-24 13:29N 22°53' E 113°17'961218193.0
2017-Sep-24 12:57N 40°43' W 074°03'9609258144.9
2017-Sep-24 12:55N 22°54' E 113°13'960923325.3
2017-Sep-24 12:30N 40°43' W 074°03'941265920.2
2017-Sep-24 12:21N 31°58' E 120°24'941226286.3
2017-Sep-24 12:00N 40°43' W 074°03'9410201646.5
2017-Sep-24 11:57N 31°58' E 120°21'941020770.5
2017-Sep-24 11:30N 40°43' W 074°03'94093079194.6
2017-Sep-24 11:30N 31°57' E 120°18'940918911.8
2017-Sep-24 11:00N 40°43' W 074°03'9407258522.3
2017-Sep-24 10:58N 31°56' E 120°15'940720315.8
2017-Sep-24 10:30N 40°43' W 074°03'9405118389.3
2017-Sep-24 10:25N 31°56' E 120°12'940522349.4
2017-Sep-24 10:00N 40°43' W 074°03'9403520784.7
2017-Sep-24 09:59N 31°56' E 120°10'940319521.9
2017-Sep-24 09:30N 40°43' W 074°03'9402180043.5
2017-Sep-24 09:27N 31°56' E 120°09'940220984.6
2017-Sep-24 09:00N 40°43' W 074°03'9402221228.8
2017-Sep-24 08:57N 31°56' E 120°09'940220551.3
2017-Sep-24 08:30N 40°43' W 074°03'9402380318.9
2017-Sep-24 08:28N 31°56' E 120°09'0 0.2
2017-Sep-24 08:00N 31°56' E 120°09'940211282880.4
2017-Sep-24 08:00N 40°43' W 074°03'0 0.0
2017-Sep-24 07:30N 40°43' W 074°03'940242470.1
2017-Sep-24 07:17N 31°56' E 120°09'940233781.1
2017-Sep-24 07:00N 40°43' W 074°03'940265471.3
2017-Sep-24 06:51N 31°56' E 120°09'940226821.4
2017-Sep-24 06:30N 40°43' W 074°03'94024231075.1
2017-Sep-24 06:30N 31°56' E 120°09'665190.7
2017-Sep-24 06:29N 31°14' E 121°09'949619334.9
2017-Sep-24 06:00N 40°43' W 074°03'94971005586.7
2017-Sep-24 05:59N 31°12' E 121°09'1 3.1
2017-Sep-24 05:30N 31°11' E 121°09'94991424828.3
2017-Sep-24 05:30N 40°43' W 074°03'0 0.0
2017-Sep-24 05:00N 40°43' W 074°03'9500977193.0
2017-Sep-24 04:59N 31°09' E 121°09'691302.1
2017-Sep-24 04:56N 31°56' E 120°09'940221504.8
2017-Sep-24 04:30N 40°43' W 074°03'9502182927.1
2017-Sep-24 04:27N 31°08' E 121°10'70290.2
2017-Sep-24 04:12N 31°56' E 120°09'940245927.6
2017-Sep-24 04:00N 40°43' W 074°03'0 0.0
2017-Sep-24 03:30N 40°43' W 074°03'940249414.0
2017-Sep-24 03:19N 31°56' E 120°09'940230384.7
2017-Sep-24 03:00N 40°43' W 074°03'0 0.0
2017-Sep-24 02:30N 40°43' W 074°03'94021167193.7
2017-Sep-24 02:29N 31°56' E 120°09'940219112.7
2017-Sep-24 02:00N 40°43' W 074°03'940232267.5
2017-Sep-24 01:42N 31°56' E 120°09'940245131.5
2017-Sep-24 01:30N 40°43' W 074°03'0 0.0
2017-Sep-24 01:00N 40°43' W 074°03'0 0.0
2017-Sep-24 00:30N 40°43' W 074°03'940278717.2
2017-Sep-24 00:23N 31°56' E 120°09'940224724.9
2017-Sep-24 00:00N 40°43' W 074°03'940237861.5
2017-Sep-23 23:45N 31°56' E 120°09'940237318.8
2017-Sep-23 23:30N 40°43' W 074°03'0 0.0
2017-Sep-23 23:00N 40°43' W 074°03'940228159.7
2017-Sep-23 22:40N 31°56' E 120°09'940256413.4
2017-Sep-23 22:30N 40°43' W 074°03'940230659.4
2017-Sep-23 22:12N 31°56' E 120°09'940248632.2
2017-Sep-23 22:00N 40°43' W 074°03'9402240056.8
2017-Sep-23 21:58N 31°56' E 120°09'940220415.0
2017-Sep-23 21:30N 40°43' W 074°03'9402114739.2
2017-Sep-23 21:25N 31°56' E 120°09'940222460.6
2017-Sep-23 21:00N 40°43' W 074°03'0 0.0
2017-Sep-23 20:30N 40°43' W 074°03'9402130688.7
2017-Sep-23 20:26N 31°56' E 120°09'940221936.7
2017-Sep-23 20:00N 40°43' W 074°03'940240152.6
2017-Sep-23 19:46N 31°56' E 120°09'9402225.0
2017-Sep-22 01:59N 40°43' W 074°03'9468155645.1
2017-Sep-22 01:55N 31°41' E 121°11'119346.7
2017-Sep-22 01:34N 29°56' E 122°17'9632100511.2
2017-Sep-22 01:29N 40°43' W 074°03'9410967910.7
2017-Sep-22 01:28N 32°02' E 120°26'1571688.7
2017-Sep-22 01:22N 29°56' E 122°17'119995.1
2017-Sep-22 01:15N 31°41' E 121°11'45172.9
2017-Sep-22 01:00N 32°00' E 120°23'9409546345.3
2017-Sep-22 00:59N 40°43' W 074°03'9632121672.8
2017-Sep-22 00:54N 29°56' E 122°17'1194413.8
2017-Sep-22 00:52N 31°41' E 121°11'46123.4
2017-Sep-22 00:30N 31°59' E 120°21'9409537651.0
2017-Sep-22 00:29N 40°43' W 074°03'940919179.4
2017-Sep-21 23:59N 31°58' E 120°19'94091092609.0
2017-Sep-21 23:59N 40°43' W 074°03'946820386.5
2017-Sep-21 23:31N 31°41' E 121°11'491891.0
2017-Sep-21 23:29N 31°57' E 120°16'9408891249.2
2017-Sep-21 23:29N 40°43' W 074°03'9468102361.2
2017-Sep-21 23:23N 31°41' E 121°11'51134.4
2017-Sep-21 23:00N 31°56' E 120°14'517645.0
2017-Sep-21 23:00N 31°41' E 121°11'9468473420.6
2017-Sep-21 22:59N 40°43' W 074°03'0 0.0
2017-Sep-21 22:29N 40°43' W 074°03'940585930.3
2017-Sep-21 22:22N 31°56' E 120°11'53411.6
2017-Sep-21 22:14N 31°41' E 121°11'946836223.5
2017-Sep-21 21:59N 40°43' W 074°03'94031612014.0
2017-Sep-21 21:58N 31°56' E 120°10'940319007.5
2017-Sep-21 21:29N 40°43' W 074°03'0 0.0
2017-Sep-21 20:59N 40°43' W 074°03'0 0.0
2017-Sep-21 20:29N 40°43' W 074°03'946856904.7
2017-Sep-21 20:19N 31°41' E 121°11'946828334.1
2017-Sep-21 19:59N 40°43' W 074°03'0 0.0
2017-Sep-21 19:29N 40°43' W 074°03'0 0.0
2017-Sep-21 18:59N 40°43' W 074°03'946863004.8
2017-Sep-21 18:50N 31°41' E 121°11'946827095.0
2017-Sep-21 18:29N 40°43' W 074°03'0 0.0
2017-Sep-21 17:59N 40°43' W 074°03'0 0.0
2017-Sep-21 17:28N 40°43' W 074°03'0 0.0
2017-Sep-21 16:58N 40°43' W 074°03'0 0.0
2017-Sep-21 16:28N 40°43' W 074°03'946849256.6
2017-Sep-21 16:17N 31°41' E 121°11'946830735.4
2017-Sep-21 15:58N 40°43' W 074°03'946828643.4
2017-Sep-21 15:39N 31°41' E 121°11'946855786.7
2017-Sep-21 15:28N 40°43' W 074°03'9468619747.8
2017-Sep-21 15:27N 31°41' E 121°11'0 0.1
2017-Sep-21 15:00N 31°41' E 121°11'9468274889.6
2017-Sep-21 14:58N 40°43' W 074°03'0 0.0
2017-Sep-21 14:28N 40°43' W 074°03'946822019.6
2017-Sep-21 14:03N 31°41' E 121°11'9468135263.1
2017-Sep-21 13:58N 40°43' W 074°03'9468279395.9
2017-Sep-21 13:56N 31°41' E 121°11'946820313.6
2017-Sep-21 13:28N 40°43' W 074°03'946846124.9
2017-Sep-21 13:16N 31°41' E 121°11'946832066.1
2017-Sep-21 12:58N 40°43' W 074°03'0 0.0
2017-Sep-21 12:28N 40°43' W 074°03'946827735.0
2017-Sep-21 12:08N 31°41' E 121°11'946860011.1
2017-Sep-21 11:58N 40°43' W 074°03'0 0.0
2017-Sep-21 11:28N 40°43' W 074°03'0 0.0
2017-Sep-21 10:58N 40°43' W 074°03'946827735.0
2017-Sep-21 10:38N 31°41' E 121°11'946859695.8
2017-Sep-21 10:28N 40°43' W 074°03'0 0.0
2017-Sep-21 09:58N 40°43' W 074°03'0 0.0
2017-Sep-21 09:28N 40°43' W 074°03'946826692.5
2017-Sep-21 09:07N 31°41' E 121°11'946865424.7
2017-Sep-21 08:58N 40°43' W 074°03'946830763.8
2017-Sep-21 08:40N 31°41' E 121°11'946849186.6
2017-Sep-21 08:28N 40°43' W 074°03'9468382991.4
2017-Sep-21 08:27N 31°41' E 121°11'946819910.2
2017-Sep-21 07:58N 40°43' W 074°03'9468405783.3
2017-Sep-21 07:57N 31°41' E 121°11'946819863.5
2017-Sep-21 07:28N 40°43' W 074°03'946822483.9
2017-Sep-21 07:03N 31°41' E 121°11'9468120443.8
2017-Sep-21 06:58N 40°43' W 074°03'0 0.0
2017-Sep-21 06:28N 40°43' W 074°03'0 0.0
2017-Sep-21 05:58N 40°43' W 074°03'0 0.0
2017-Sep-21 05:28N 40°43' W 074°03'0 0.0
2017-Sep-21 04:58N 40°43' W 074°03'0 0.0
2017-Sep-21 04:28N 40°43' W 074°03'0 0.0
2017-Sep-21 03:58N 40°43' W 074°03'946866965.8
2017-Sep-21 03:50N 31°41' E 121°11'946828428.4
2017-Sep-21 03:30N 40°43' W 074°03'946882134.5
2017-Sep-21 03:23N 31°41' E 121°11'946824628.5
2017-Sep-21 03:00N 40°43' W 074°03'946839497.5
2017-Sep-21 02:45N 31°41' E 121°11'946836339.4
2017-Sep-21 02:30N 40°43' W 074°03'946845570.0
2017-Sep-21 02:17N 31°41' E 121°11'946832463.2
2017-Sep-21 02:00N 40°43' W 074°03'9468113243.5
2017-Sep-21 01:55N 31°41' E 121°11'946822693.9
2017-Sep-21 01:30N 40°43' W 074°03'9468142026.2
2017-Sep-21 01:26N 31°41' E 121°11'0 0.0
2017-Sep-21 01:00N 31°41' E 121°11'94681794016.0
2017-Sep-21 01:00N 40°43' W 074°03'0 0.0
2017-Sep-21 00:30N 40°43' W 074°03'946888998.1
2017-Sep-21 00:23N 31°41' E 121°11'946824038.3
2017-Sep-21 00:00N 40°43' W 074°03'946845938.4
2017-Sep-20 23:47N 31°41' E 121°11'946832248.2
2017-Sep-20 23:30N 40°43' W 074°03'946840101.5
2017-Sep-20 23:16N 31°41' E 121°11'946835842.6
2017-Sep-20 23:00N 40°43' W 074°03'94682840525.4
2017-Sep-20 23:00N 31°41' E 121°11'946819085.3
2017-Sep-20 22:30N 40°43' W 074°03'9468103605.7
2017-Sep-20 22:24N 31°41' E 121°11'946823140.7
2017-Sep-20 22:00N 40°43' W 074°03'946838472.1
2017-Sep-20 21:45N 31°41' E 121°11'946837293.5
2017-Sep-20 21:30N 40°43' W 074°03'946835956.0
2017-Sep-20 21:14N 31°41' E 121°11'946840007.4
2017-Sep-20 21:00N 40°43' W 074°03'9468405789.6
2017-Sep-20 20:58N 31°41' E 121°11'946819875.4
2017-Sep-20 20:30N 40°43' W 074°03'9468296402.6
2017-Sep-20 20:28N 31°41' E 121°11'946820217.3
2017-Sep-20 20:00N 40°43' W 074°03'94681217362.6
2017-Sep-20 19:59N 31°41' E 121°11'946819236.0
2017-Sep-20 19:30N 40°43' W 074°03'9468107526.2
2017-Sep-20 19:25N 31°41' E 121°11'946822999.9
2017-Sep-20 19:00N 40°43' W 074°03'946887623.5
2017-Sep-20 18:53N 31°41' E 121°11'946824174.2
2017-Sep-20 18:30N 40°43' W 074°03'0 0.0
2017-Sep-20 18:00N 40°43' W 074°03'0 0.0
2017-Sep-20 17:30N 40°43' W 074°03'0 0.0
2017-Sep-20 17:00N 40°43' W 074°03'0 0.0
2017-Sep-20 16:30N 40°43' W 074°03'946871011.6
2017-Sep-20 16:22N 31°41' E 121°11'946825783.3
2017-Sep-20 16:00N 40°43' W 074°03'946835579.9
2017-Sep-20 15:44N 31°41' E 121°11'946840578.1
2017-Sep-20 15:30N 40°43' W 074°03'946860328.5
2017-Sep-20 15:20N 31°41' E 121°11'946827622.1
2017-Sep-20 15:00N 40°43' W 074°03'946865549.7
2017-Sep-20 14:51N 31°41' E 121°11'946811056.1
2017-Sep-20 14:00N 40°43' W 074°03'0 0.0
2017-Sep-20 13:30N 40°43' W 074°03'946832618.5
2017-Sep-20 13:12N 31°41' E 121°11'946845147.5
2017-Sep-20 13:00N 40°43' W 074°03'946881157.9
2017-Sep-20 12:53N 31°41' E 121°11'946824700.2
2017-Sep-20 12:30N 40°43' W 074°03'9468106187.9
2017-Sep-20 12:25N 31°41' E 121°11'946823046.9
2017-Sep-20 12:00N 40°43' W 074°03'9468107868.1
2017-Sep-20 11:55N 31°41' E 121°11'946822969.2
2017-Sep-20 11:30N 40°43' W 074°03'9468387344.6
2017-Sep-20 11:28N 31°41' E 121°11'946819898.6
2017-Sep-20 11:00N 40°43' W 074°03'946867497.6
2017-Sep-20 10:51N 31°41' E 121°11'946826321.5
2017-Sep-20 10:30N 40°43' W 074°03'9468391796.9
2017-Sep-20 10:28N 31°41' E 121°11'946819910.2
2017-Sep-20 10:00N 40°43' W 074°03'9468104559.3
2017-Sep-20 09:54N 31°41' E 121°11'946823125.1
2017-Sep-20 09:30N 40°43' W 074°03'9468480089.1
2017-Sep-20 09:29N 31°41' E 121°11'946819703.1
2017-Sep-20 09:00N 40°43' W 074°03'9468643138.3
2017-Sep-20 08:59N 31°41' E 121°11'946818555.4
2017-Sep-20 08:28N 40°43' W 074°03'946888997.7
2017-Sep-20 08:22N 31°41' E 121°11'946824072.1
2017-Sep-20 07:58N 40°43' W 074°03'9468163090.4
2017-Sep-20 07:55N 31°41' E 121°11'946821424.2
2017-Sep-20 07:28N 40°43' W 074°03'9468436998.0
2017-Sep-20 07:27N 31°41' E 121°11'0 0.0
2017-Sep-20 07:00N 31°41' E 121°11'9468288862.7
2017-Sep-20 06:58N 40°43' W 074°03'0 0.0
2017-Sep-20 06:28N 40°43' W 074°03'0 0.0
2017-Sep-20 05:58N 40°43' W 074°03'0 0.0
2017-Sep-20 05:28N 40°43' W 074°03'0 0.0
2017-Sep-20 04:58N 40°43' W 074°03'946836494.2
2017-Sep-20 04:43N 31°41' E 121°11'946839359.8
2017-Sep-20 04:28N 40°43' W 074°03'0 0.0
2017-Sep-20 03:58N 40°43' W 074°03'946874422.7
2017-Sep-20 03:51N 31°41' E 121°11'0 0.0
2017-Sep-20 03:30N 31°41' E 121°11'9468362612.7
2017-Sep-20 03:28N 40°43' W 074°03'0 0.0
2017-Sep-20 02:58N 40°43' W 074°03'9468146289.9
2017-Sep-20 02:54N 31°41' E 121°11'0 0.2
2017-Sep-20 02:28N 31°41' E 121°11'94684260755.5
2017-Sep-20 02:28N 40°43' W 074°03'0 0.0
2017-Sep-20 01:58N 40°43' W 074°03'946850053.1
2017-Sep-20 01:47N 31°41' E 121°11'946830461.3
2017-Sep-20 01:28N 40°43' W 074°03'0 0.0
2017-Sep-20 00:58N 40°43' W 074°03'0 0.0
2017-Sep-20 00:28N 40°43' W 074°03'946826403.0
2017-Sep-20 00:07N 31°41' E 121°11'946866835.8
2017-Sep-19 23:58N 40°43' W 074°03'0 0.0
2017-Sep-19 23:28N 40°43' W 074°03'0 0.0
2017-Sep-19 22:58N 40°43' W 074°03'0 0.0
2017-Sep-19 22:28N 40°43' W 074°03'0 0.0
2017-Sep-19 21:58N 40°43' W 074°03'0 0.0
2017-Sep-19 21:28N 40°43' W 074°03'946820670.9
2017-Sep-19 21:01N 31°41' E 121°11'0 0.0
2017-Sep-19 21:00N 31°41' E 121°11'9468366518.9
2017-Sep-19 20:58N 40°43' W 074°03'0 0.0
2017-Sep-19 20:28N 40°43' W 074°03'0 0.0
2017-Sep-19 19:58N 40°43' W 074°03'0 0.0
2017-Sep-19 19:28N 40°43' W 074°03'9389103686.4
2017-Sep-19 19:23N 32°01' E 119°59'65180.4
2017-Sep-19 19:01N 31°41' E 121°11'9468183258.8
2017-Sep-19 18:58N 40°43' W 074°03'9394248663.6
2017-Sep-19 18:56N 31°58' E 120°02'625687.0
2017-Sep-19 18:55N 31°41' E 121°11'0 0.2
2017-Sep-19 18:31N 31°41' E 121°11'9468266293.0
2017-Sep-19 18:28N 40°43' W 074°03'939988343.3
2017-Sep-19 18:22N 31°57' E 120°06'2 6.1
2017-Sep-19 18:00N 31°57' E 120°09'9401398175.6
2017-Sep-19 17:58N 40°43' W 074°03'946894682.1
2017-Sep-19 17:52N 31°41' E 121°11'0 0.0
2017-Sep-19 17:30N 31°41' E 121°11'9468374566.2
2017-Sep-19 17:28N 40°43' W 074°03'940356795.9
2017-Sep-19 17:18N 31°57' E 120°10'49151.9
2017-Sep-19 16:59N 31°45' E 121°06'9460709509.1
2017-Sep-19 16:58N 40°43' W 074°03'94035641726.9
2017-Sep-19 16:58N 31°57' E 120°10'54249.6
2017-Sep-19 16:45N 31°41' E 121°11'0 0.0
2017-Sep-19 16:31N 31°41' E 121°11'9468268389.9
2017-Sep-19 16:28N 40°43' W 074°03'940367972.6
2017-Sep-19 16:20N 31°57' E 120°10'551477.5
2017-Sep-19 16:18N 31°41' E 121°12'55188.1
2017-Sep-19 16:00N 31°57' E 120°10'542206.9
2017-Sep-19 15:59N 31°41' E 121°11'9468921229.7
2017-Sep-19 15:58N 40°43' W 074°03'947581604.7
2017-Sep-19 15:51N 31°38' E 121°16'3 9.4
2017-Sep-19 15:30N 31°36' E 121°18'8349.4
2017-Sep-19 15:29N 31°41' E 121°11'9468896986.9
2017-Sep-19 15:28N 40°43' W 074°03'940384838.0
2017-Sep-19 15:22N 31°57' E 120°10'940324178.8
2017-Sep-19 14:58N 40°43' W 074°03'9468391787.7
2017-Sep-19 14:57N 31°41' E 121°11'54164.9
2017-Sep-19 14:37N 31°57' E 120°10'940363153.7
2017-Sep-19 14:28N 40°43' W 074°03'9403191245.1
2017-Sep-19 14:25N 31°57' E 120°10'940320856.7
2017-Sep-19 13:58N 40°43' W 074°03'9468568103.9
2017-Sep-19 13:57N 31°41' E 121°11'54376.5
2017-Sep-19 13:49N 31°57' E 120°10'940327678.2
2017-Sep-19 13:28N 40°43' W 074°03'9403307730.7
2017-Sep-19 13:27N 31°57' E 120°10'940320029.8
2017-Sep-19 12:58N 40°43' W 074°03'9468619751.0
2017-Sep-19 12:57N 31°41' E 121°11'54354.6
2017-Sep-19 12:48N 31°57' E 120°10'0 0.0
2017-Sep-19 12:30N 31°57' E 120°10'9403307730.9
2017-Sep-19 12:28N 40°43' W 074°03'940319017.0
2017-Sep-19 11:59N 31°57' E 120°10'94031991187.2
2017-Sep-19 11:58N 40°43' W 074°03'946893387.1
2017-Sep-19 11:52N 31°41' E 121°11'53144.1
2017-Sep-19 11:30N 31°57' E 120°12'9404294385.5
2017-Sep-19 11:28N 40°43' W 074°03'9468420818.3
2017-Sep-19 11:27N 31°41' E 121°11'946819817.6
2017-Sep-19 10:58N 40°43' W 074°03'9508151452.2
2017-Sep-19 10:55N 31°20' E 121°33'763076.0
2017-Sep-19 10:53N 31°57' E 120°14'74182.2
2017-Sep-19 10:29N 31°21' E 121°31'95051555344.5
2017-Sep-19 10:28N 40°43' W 074°03'9407338657.0
2017-Sep-19 10:27N 31°57' E 120°16'72163.6
2017-Sep-19 10:00N 31°23' E 121°30'9503267270.7
2017-Sep-19 09:58N 40°43' W 074°03'940934111.6
2017-Sep-19 09:42N 31°58' E 120°19'1 4.7
2017-Sep-19 09:30N 31°58' E 120°20'6818730.9
2017-Sep-19 09:30N 31°25' E 121°30'9500302667.3
2017-Sep-19 09:28N 40°43' W 074°03'946845327.5
2017-Sep-19 09:16N 31°41' E 121°11'1869.4
2017-Sep-19 09:00N 31°28' E 121°26'9494273418.5
2017-Sep-19 08:58N 40°43' W 074°03'946849544.0
2017-Sep-19 08:47N 31°41' E 121°11'946830819.4
2017-Sep-19 08:28N 40°43' W 074°03'0 0.0
2017-Sep-19 07:58N 40°43' W 074°03'963229791.0
2017-Sep-19 07:39N 29°56' E 122°17'963254523.2
2017-Sep-19 07:28N 40°43' W 074°03'963278454.1
2017-Sep-19 07:21N 29°56' E 122°17'963225554.0
2017-Sep-19 06:58N 40°43' W 074°03'9468279392.5
2017-Sep-19 06:56N 31°41' E 121°11'946820325.5
2017-Sep-19 06:28N 40°43' W 074°03'9468123498.8
2017-Sep-19 06:24N 31°41' E 121°11'222.2
2017-Sep-19 06:20N 31°41' E 121°09'946726666.9
2017-Sep-19 05:58N 40°43' W 074°03'0 0.0
2017-Sep-19 05:28N 40°43' W 074°03'9467231838.6
2017-Sep-19 05:26N 31°41' E 121°09'211.1
2017-Sep-19 05:18N 31°41' E 121°11'946829460.3
2017-Sep-19 04:58N 40°43' W 074°03'946875244.1
2017-Sep-19 04:51N 31°41' E 121°11'235.1
2017-Sep-19 04:48N 31°41' E 121°09'946728590.8
2017-Sep-19 04:28N 40°43' W 074°03'9467115136.1
2017-Sep-19 04:23N 31°41' E 121°09'0 0.0
2017-Sep-19 03:59N 31°41' E 121°09'94672130017.3
2017-Sep-19 03:58N 40°43' W 074°03'0 0.0
2017-Sep-19 03:28N 40°43' W 074°03'946733843.4
2017-Sep-19 03:12N 31°41' E 121°09'946742868.3
2017-Sep-19 02:58N 40°43' W 074°03'0 0.0
2017-Sep-19 02:28N 40°43' W 074°03'946854190.5
2017-Sep-19 02:18N 31°41' E 121°11'2 5.7
2017-Sep-19 02:02N 31°41' E 121°09'9467163847.4
2017-Sep-19 01:58N 40°43' W 074°03'9467106834.7
2017-Sep-19 01:53N 31°41' E 121°09'946722965.2
2017-Sep-19 01:28N 40°43' W 074°03'946757568.0
2017-Sep-19 01:18N 31°41' E 121°09'946728235.5
2017-Sep-19 00:58N 40°43' W 074°03'9467109231.7
2017-Sep-19 00:53N 31°41' E 121°09'2 6.3
2017-Sep-19 00:38N 31°41' E 121°11'946860977.2
2017-Sep-19 00:28N 40°43' W 074°03'94681136209.4
2017-Sep-19 00:28N 31°41' E 121°11'221.1
2017-Sep-19 00:23N 31°41' E 121°09'0 0.0
2017-Sep-18 23:59N 31°41' E 121°09'9467524312.0
2017-Sep-18 23:58N 40°43' W 074°03'0 0.0
2017-Sep-18 23:28N 40°43' W 074°03'9468228766.8
2017-Sep-18 23:26N 31°41' E 121°11'946820670.9
2017-Sep-18 22:58N 40°43' W 074°03'0 0.0
2017-Sep-18 22:28N 40°43' W 074°03'946739720.6
2017-Sep-18 22:14N 31°41' E 121°09'946736178.6
2017-Sep-18 21:58N 40°43' W 074°03'94671793698.8
2017-Sep-18 21:58N 31°41' E 121°09'946719146.2
2017-Sep-18 21:28N 40°43' W 074°03'9467145642.2
2017-Sep-18 21:24N 31°41' E 121°09'946721804.4
2017-Sep-18 20:58N 40°43' W 074°03'946780950.8
2017-Sep-18 20:51N 31°41' E 121°09'215.8
2017-Sep-18 20:45N 31°41' E 121°11'441995.2
2017-Sep-18 20:44N 31°58' E 120°23'44175.0
2017-Sep-18 20:29N 31°41' E 121°11'94682434732.7
2017-Sep-18 20:28N 40°43' W 074°03'9467145642.3
2017-Sep-18 20:25N 31°41' E 121°09'44922.9
2017-Sep-18 20:22N 31°58' E 120°21'46125.8
2017-Sep-18 20:00N 31°41' E 121°11'9468405788.5
2017-Sep-18 19:58N 40°43' W 074°03'94091209706.9
2017-Sep-18 19:58N 31°57' E 120°19'46992.3
2017-Sep-18 19:55N 31°41' E 121°09'946721247.1
2017-Sep-18 19:28N 40°43' W 074°03'9467486860.9
2017-Sep-18 19:27N 31°41' E 121°09'481211.3
2017-Sep-18 19:25N 31°56' E 120°16'50352.2
2017-Sep-18 19:16N 31°41' E 121°11'2 6.1
2017-Sep-18 19:00N 31°41' E 121°09'9467293795.5
2017-Sep-18 18:58N 40°43' W 074°03'9406100775.3
2017-Sep-18 18:53N 31°56' E 120°13'2 4.4
2017-Sep-18 18:30N 31°56' E 120°11'9404328686.5
2017-Sep-18 18:28N 40°43' W 074°03'9467120852.0
2017-Sep-18 18:24N 31°41' E 121°09'2 5.2
2017-Sep-18 18:06N 31°41' E 121°11'215.0
2017-Sep-18 18:00N 31°41' E 121°09'9467410605.7
2017-Sep-18 17:59N 40°43' W 074°03'946859279.1
2017-Sep-18 17:49N 31°41' E 121°11'946827644.4
2017-Sep-18 17:28N 40°43' W 074°03'940280397.6
2017-Sep-18 17:21N 31°57' E 120°09'55308.2
2017-Sep-18 17:11N 31°41' E 121°11'55312.5
2017-Sep-18 17:00N 31°57' E 120°09'551418.6
2017-Sep-18 16:58N 31°41' E 121°11'9468225731.8
2017-Sep-18 16:55N 40°43' W 074°03'946822876.2
2017-Sep-18 16:31N 31°41' E 121°11'9468264228.8
2017-Sep-18 16:28N 40°43' W 074°03'940246686.5
2017-Sep-18 16:16N 31°57' E 120°09'53234.1
2017-Sep-18 16:03N 31°41' E 121°09'232.6
2017-Sep-18 16:00N 31°41' E 121°11'9468396343.5
2017-Sep-18 15:58N 40°43' W 074°03'9467230272.1
2017-Sep-18 15:56N 31°41' E 121°09'53815.8
2017-Sep-18 15:52N 31°57' E 120°09'55146.4
2017-Sep-18 15:30N 31°41' E 121°11'9468473410.1
2017-Sep-18 15:28N 40°43' W 074°03'9402867890.8
2017-Sep-18 15:28N 31°57' E 120°09'53593.5
2017-Sep-18 15:22N 31°41' E 121°09'946723683.3
2017-Sep-18 14:58N 40°43' W 074°03'9468114766.1
2017-Sep-18 14:53N 31°41' E 121°11'229.6
2017-Sep-18 14:50N 31°41' E 121°09'531742.7
2017-Sep-18 14:48N 31°57' E 120°09'940228042.9
2017-Sep-18 14:28N 40°43' W 074°03'9402120454.6
2017-Sep-18 14:24N 31°57' E 120°09'55371.7
2017-Sep-18 14:15N 31°41' E 121°11'946834464.7
2017-Sep-18 13:58N 40°43' W 074°03'9468426069.0
2017-Sep-18 13:57N 31°41' E 121°11'55511.7
2017-Sep-18 13:51N 31°57' E 120°09'53153.0
2017-Sep-18 13:30N 31°41' E 121°09'9467431395.9
2017-Sep-18 13:28N 40°43' W 074°03'9468125314.2
2017-Sep-18 13:24N 31°41' E 121°11'946822263.5
2017-Sep-18 12:58N 40°43' W 074°03'946740284.0
2017-Sep-18 12:44N 31°41' E 121°09'53274.3
2017-Sep-18 12:33N 31°57' E 120°09'531134.4
2017-Sep-18 12:30N 31°41' E 121°09'9467396282.6
2017-Sep-18 12:28N 40°43' W 074°03'940235517.1
2017-Sep-18 12:12N 31°57' E 120°09'940239961.9
2017-Sep-18 11:58N 40°43' W 074°03'9467214341.5
2017-Sep-18 11:56N 31°41' E 121°09'946720768.0
2017-Sep-18 11:28N 40°43' W 074°03'9402417873.3
2017-Sep-18 11:27N 31°57' E 120°09'53400.2
2017-Sep-18 11:19N 31°41' E 121°09'53164.7
2017-Sep-18 11:00N 31°57' E 120°09'9402445364.9
2017-Sep-18 10:58N 40°43' W 074°03'9467366454.8
2017-Sep-18 10:57N 31°41' E 121°09'946719965.0
2017-Sep-18 10:28N 40°43' W 074°03'9467111010.7
2017-Sep-18 10:23N 31°41' E 121°09'53647.7
2017-Sep-18 10:18N 31°57' E 120°09'940228324.4
2017-Sep-18 09:58N 40°43' W 074°03'94671217152.7
2017-Sep-18 09:58N 31°41' E 121°09'53174.3
2017-Sep-18 09:40N 31°57' E 120°09'0 0.0
2017-Sep-18 09:29N 31°57' E 120°09'9402650913.8
2017-Sep-18 09:28N 40°43' W 074°03'946731585.1
2017-Sep-18 09:10N 31°41' E 121°09'946747202.6
2017-Sep-18 08:58N 40°43' W 074°03'9467137420.5
2017-Sep-18 08:54N 31°41' E 121°09'53381.5
2017-Sep-18 08:46N 31°57' E 120°09'940232359.0
2017-Sep-18 08:28N 40°43' W 074°03'94024230931.7
2017-Sep-18 08:28N 31°57' E 120°09'53354.7
2017-Sep-18 08:19N 31°41' E 121°09'219.0
2017-Sep-18 08:14N 31°41' E 121°11'946836146.6
2017-Sep-18 07:58N 40°43' W 074°03'946766304.0
2017-Sep-18 07:50N 31°41' E 121°09'229.8
2017-Sep-18 07:47N 31°41' E 121°11'55451.4
2017-Sep-18 07:39N 31°57' E 120°09'940252314.3
2017-Sep-18 07:28N 40°43' W 074°03'9468250634.4
2017-Sep-18 07:26N 31°41' E 121°11'55280.4
2017-Sep-18 07:14N 31°57' E 120°09'531380.8
2017-Sep-18 07:12N 31°41' E 121°09'0 0.0
2017-Sep-18 06:59N 31°41' E 121°09'94671893348.7
2017-Sep-18 06:58N 40°43' W 074°03'946719157.0
2017-Sep-18 06:29N 31°41' E 121°09'9467946673.9
2017-Sep-18 06:28N 40°43' W 074°03'946892877.1
2017-Sep-18 06:22N 31°41' E 121°11'55157.6
2017-Sep-18 06:01N 31°57' E 120°09'9402190152.0
2017-Sep-18 05:58N 40°43' W 074°03'94681481984.1
2017-Sep-18 05:58N 31°41' E 121°11'219.8
2017-Sep-18 05:53N 31°41' E 121°09'53825.5
2017-Sep-18 05:49N 31°57' E 120°09'940226777.9
2017-Sep-18 05:28N 40°43' W 074°03'9402914794.8
2017-Sep-18 05:27N 31°56' E 120°09'531764.3
2017-Sep-18 05:26N 31°41' E 121°09'217.5
2017-Sep-18 05:20N 31°41' E 121°11'946825437.1
2017-Sep-18 04:58N 40°43' W 074°03'9402214223.9
2017-Sep-18 04:55N 31°56' E 120°09'531373.7
2017-Sep-18 04:53N 31°41' E 121°09'2 4.0
2017-Sep-18 04:30N 31°41' E 121°11'9468245220.1
2017-Sep-18 04:28N 40°43' W 074°03'9467312662.9
2017-Sep-18 04:26N 31°41' E 121°09'53118.1
2017-Sep-18 03:59N 31°56' E 120°09'9402554875.1
2017-Sep-18 03:58N 40°43' W 074°03'9468243468.5
2017-Sep-18 03:56N 31°41' E 121°11'212.7
2017-Sep-18 03:49N 31°41' E 121°09'946727775.3
2017-Sep-18 03:28N 40°43' W 074°03'9467774551.7
2017-Sep-18 03:27N 31°41' E 121°09'0 0.0
2017-Sep-18 03:01N 31°41' E 121°09'9467236668.6
2017-Sep-18 02:58N 40°43' W 074°03'0 0.0
2017-Sep-18 02:28N 40°43' W 074°03'946721461.1
2017-Sep-18 02:02N 31°41' E 121°09'9467161517.9
2017-Sep-18 01:58N 40°43' W 074°03'9467501180.5
2017-Sep-18 01:57N 31°41' E 121°09'946719688.2
2017-Sep-18 01:28N 40°43' W 074°03'946777631.6
2017-Sep-18 01:21N 31°41' E 121°09'53142.8
2017-Sep-18 00:58N 31°56' E 120°09'94022115461.5
2017-Sep-18 00:58N 40°43' W 074°03'946719287.1
2017-Sep-18 00:29N 31°41' E 121°09'94671175182.8
2017-Sep-18 00:28N 40°43' W 074°03'9402103508.8
2017-Sep-18 00:23N 31°56' E 120°09'940222916.3
2017-Sep-17 23:58N 40°43' W 074°03'0 0.0
2017-Sep-17 23:28N 40°43' W 074°03'940238594.5
2017-Sep-17 23:13N 31°56' E 120°09'940236631.4
2017-Sep-17 22:58N 40°43' W 074°03'940241684.0
2017-Sep-17 22:45N 31°56' E 120°09'940234258.5
2017-Sep-17 22:28N 40°43' W 074°03'9467415613.1
2017-Sep-17 22:27N 31°41' E 121°09'53429.3
2017-Sep-17 22:19N 31°56' E 120°09'940226672.5
2017-Sep-17 21:58N 40°43' W 074°03'9467681605.5
2017-Sep-17 21:57N 31°41' E 121°09'946719485.6
2017-Sep-17 21:28N 40°43' W 074°03'946775398.8
2017-Sep-17 21:21N 31°41' E 121°09'2190.1
2017-Sep-17 21:20N 31°41' E 121°11'554401.6
2017-Sep-17 21:19N 31°57' E 120°09'940226567.8
2017-Sep-17 20:58N 40°43' W 074°03'9402279730.4
2017-Sep-17 20:56N 31°56' E 120°09'940220207.4
2017-Sep-17 20:28N 40°43' W 074°03'9402371938.8
2017-Sep-17 20:27N 31°56' E 120°08'542459.1
2017-Sep-17 20:25N 31°41' E 121°09'946720857.0
2017-Sep-17 19:58N 40°43' W 074°03'939992952.7
2017-Sep-17 19:52N 31°57' E 120°05'939923578.2
2017-Sep-17 19:28N 40°43' W 074°03'9396402692.9
2017-Sep-17 19:27N 31°58' E 120°03'59795.5
2017-Sep-17 19:22N 31°41' E 121°09'60154.0
2017-Sep-17 18:59N 31°58' E 120°01'9394768606.2
2017-Sep-17 18:58N 40°43' W 074°03'9467973722.2
2017-Sep-17 18:58N 31°41' E 121°09'0 0.0
2017-Sep-17 18:29N 31°41' E 121°09'9467568004.3
2017-Sep-17 18:28N 40°43' W 074°03'0 0.0
2017-Sep-17 17:58N 40°43' W 074°03'946822907.3
2017-Sep-17 17:33N 31°41' E 121°11'0 0.1
2017-Sep-17 17:29N 31°41' E 121°11'94681262447.2
2017-Sep-17 17:28N 40°43' W 074°03'0 0.0
2017-Sep-17 16:58N 40°43' W 074°03'93833377737.3
2017-Sep-17 16:58N 32°04' E 119°55'68707.7
2017-Sep-17 16:52N 31°41' E 121°11'0 0.0
2017-Sep-17 16:29N 31°41' E 121°11'9468493993.4
2017-Sep-17 16:28N 40°43' W 074°03'0 0.0
2017-Sep-17 15:58N 40°43' W 074°03'94682840463.9
2017-Sep-17 15:58N 31°41' E 121°11'2 4.6
2017-Sep-17 15:38N 31°41' E 121°09'0 0.0
2017-Sep-17 15:28N 31°41' E 121°09'94673098205.4
2017-Sep-17 15:28N 40°43' W 074°03'946829847.3
2017-Sep-17 15:09N 31°41' E 121°11'2 9.5
2017-Sep-17 14:59N 31°41' E 121°09'9467448424.7
2017-Sep-17 14:58N 40°43' W 074°03'9468256282.5
2017-Sep-17 14:56N 31°41' E 121°11'2 3.4
2017-Sep-17 14:29N 31°41' E 121°09'9467725112.3
2017-Sep-17 14:28N 40°43' W 074°03'0 0.0
2017-Sep-17 13:58N 40°43' W 074°03'9467774551.7
2017-Sep-17 13:57N 31°41' E 121°09'223.5
2017-Sep-17 13:53N 31°41' E 121°11'1211749.9
2017-Sep-17 13:49N 29°58' E 122°24'121382.4
2017-Sep-17 13:30N 31°41' E 121°11'9468246996.9
2017-Sep-17 13:28N 40°43' W 074°03'946788982.4
2017-Sep-17 13:22N 31°41' E 121°09'121482.6
2017-Sep-17 13:07N 29°55' E 122°18'1 7.1
2017-Sep-17 12:59N 29°55' E 122°17'9634412876.1
2017-Sep-17 12:58N 40°43' W 074°03'94674260034.6
2017-Sep-17 12:58N 31°41' E 121°09'259.3
2017-Sep-17 12:56N 31°41' E 121°11'119274.9
2017-Sep-17 12:30N 29°56' E 122°16'11914301.5
2017-Sep-17 12:30N 31°41' E 121°11'9468119182.4
2017-Sep-17 12:25N 40°43' W 074°03'946746942.5
2017-Sep-17 12:13N 31°41' E 121°09'2 6.9
2017-Sep-17 11:59N 31°41' E 121°11'9468874008.4
2017-Sep-17 11:58N 40°43' W 074°03'9633182511.3
2017-Sep-17 11:55N 29°56' E 122°16'1203485.3
2017-Sep-17 11:53N 31°41' E 121°09'946722949.7
2017-Sep-17 11:28N 40°43' W 074°03'96331155904.1
2017-Sep-17 11:28N 29°56' E 122°16'0 0.0
2017-Sep-17 10:59N 29°56' E 122°16'9633509957.3
2017-Sep-17 10:58N 40°43' W 074°03'0 0.0
2017-Sep-17 10:28N 40°43' W 074°03'96331019920.4
2017-Sep-17 10:28N 29°56' E 122°16'119325.5
2017-Sep-17 10:06N 31°41' E 121°11'0 0.0
2017-Sep-17 10:00N 31°41' E 121°11'11925232.9
2017-Sep-17 10:00N 29°56' E 122°16'9633357496.1
2017-Sep-17 09:58N 40°43' W 074°03'946732488.4
2017-Sep-17 09:41N 31°42' E 121°10'0 2.6
2017-Sep-17 09:30N 31°42' E 121°10'1204052.5
2017-Sep-17 09:28N 29°56' E 122°16'9633169986.7
2017-Sep-17 09:25N 40°43' W 074°03'963322919.5
2017-Sep-17 09:00N 29°56' E 122°16'1191702.5
2017-Sep-17 08:56N 31°41' E 121°11'94681032918.3
2017-Sep-17 08:55N 40°43' W 074°03'0 0.0
2017-Sep-17 08:28N 40°43' W 074°03'9633100223.3
2017-Sep-17 08:22N 29°56' E 122°16'1195645.1
2017-Sep-17 08:21N 31°41' E 121°11'946825305.3
2017-Sep-17 07:59N 40°43' W 074°03'9633357498.1
2017-Sep-17 07:57N 29°56' E 122°16'0 0.1
2017-Sep-17 07:30N 29°56' E 122°16'9633268817.9
2017-Sep-17 07:28N 40°43' W 074°03'946876085.5
2017-Sep-17 07:21N 31°41' E 121°11'110.3
2017-Sep-17 07:12N 31°42' E 121°10'946646429.2
2017-Sep-17 07:00N 40°43' W 074°03'9633346775.3
2017-Sep-17 06:58N 29°56' E 122°16'1196603.9
2017-Sep-17 06:57N 31°41' E 121°11'111.8
2017-Sep-17 06:50N 31°42' E 121°10'55186.4
2017-Sep-17 06:32N 31°57' E 120°08'9400201439.1
2017-Sep-17 06:30N 40°43' W 074°03'9466210364.4
2017-Sep-17 06:27N 31°42' E 121°10'121980.1
2017-Sep-17 06:20N 29°56' E 122°16'1621874.7
2017-Sep-17 06:14N 31°56' E 120°09'940238333.9
2017-Sep-17 06:00N 40°43' W 074°03'94042115860.8
2017-Sep-17 05:59N 31°56' E 120°11'52344.6
2017-Sep-17 05:50N 31°42' E 121°10'1 6.1
2017-Sep-17 05:36N 31°41' E 121°11'1192787.1
2017-Sep-17 05:34N 29°56' E 122°16'1212000.9
2017-Sep-17 05:30N 31°42' E 121°10'94661262185.5
2017-Sep-17 05:30N 40°43' W 074°03'9633291407.5
2017-Sep-17 05:28N 29°56' E 122°16'1194087.6
2017-Sep-17 05:26N 31°41' E 121°11'50273.7
2017-Sep-17 05:15N 31°57' E 120°15'940736889.3
2017-Sep-17 05:00N 40°43' W 074°03'9407204016.7
2017-Sep-17 04:57N 31°57' E 120°17'48475.9
2017-Sep-17 04:51N 31°42' E 121°10'1 7.4
2017-Sep-17 04:39N 31°41' E 121°11'946860760.0
2017-Sep-17 04:30N 40°43' W 074°03'9466279333.4
2017-Sep-17 04:28N 31°42' E 121°10'121818.1
2017-Sep-17 04:19N 29°56' E 122°16'119397.3
2017-Sep-17 04:01N 31°41' E 121°11'9468516452.5
2017-Sep-17 04:00N 40°43' W 074°03'9466587562.5
2017-Sep-17 03:59N 31°42' E 121°10'1 8.1
2017-Sep-17 03:48N 31°41' E 121°11'946830379.5
2017-Sep-17 03:30N 40°43' W 074°03'946655593.2
2017-Sep-17 03:19N 31°42' E 121°10'121958.3
2017-Sep-17 03:12N 29°56' E 122°17'963347310.3
2017-Sep-17 03:00N 40°43' W 074°03'96331333786.0
2017-Sep-17 02:59N 29°56' E 122°17'1211011.8
2017-Sep-17 02:52N 31°42' E 121°10'946625356.1
2017-Sep-17 02:30N 40°43' W 074°03'946694400.6
2017-Sep-17 02:24N 31°42' E 121°10'110.9
2017-Sep-17 02:16N 31°41' E 121°11'946835140.0
2017-Sep-17 02:00N 40°43' W 074°03'9633679965.5
2017-Sep-17 01:59N 29°56' E 122°17'119986.1
2017-Sep-17 01:52N 31°41' E 121°11'1171.3
2017-Sep-17 01:51N 31°42' E 121°10'946626541.0
2017-Sep-17 01:30N 40°43' W 074°03'96331733915.5
2017-Sep-17 01:29N 29°56' E 122°17'1211412.6
2017-Sep-17 01:24N 31°42' E 121°10'2 8.7
2017-Sep-17 01:14N 31°41' E 121°11'946840007.2
2017-Sep-17 01:00N 40°43' W 074°03'946687832.5
2017-Sep-17 00:53N 31°42' E 121°10'1215175.6
2017-Sep-17 00:52N 29°56' E 122°17'963324841.1
2017-Sep-17 00:29N 40°43' W 074°03'9466258174.3
2017-Sep-17 00:26N 31°42' E 121°10'1214724.1
2017-Sep-17 00:25N 29°56' E 122°17'963321646.7
2017-Sep-16 23:58N 40°43' W 074°03'96332889836.6
2017-Sep-16 23:58N 29°56' E 122°17'121501.2
2017-Sep-16 23:43N 31°42' E 121°10'946636962.1
2017-Sep-16 23:28N 40°43' W 074°03'9633577966.6
2017-Sep-16 23:27N 29°56' E 122°17'1211241.5
2017-Sep-16 23:21N 31°42' E 121°10'0 0.0
2017-Sep-16 22:59N 31°42' E 121°10'9466597877.7
2017-Sep-16 22:58N 40°43' W 074°03'963375716.1
2017-Sep-16 22:50N 29°56' E 122°17'0 0.0
2017-Sep-16 22:30N 29°56' E 122°17'12119751.8
2017-Sep-16 22:30N 31°42' E 121°10'9466283991.9
2017-Sep-16 22:28N 40°43' W 074°03'0 0.0
2017-Sep-16 21:58N 40°43' W 074°03'9466540937.0
2017-Sep-16 21:57N 31°42' E 121°10'1211165.3
2017-Sep-16 21:51N 29°56' E 122°17'963325479.9
2017-Sep-16 21:28N 40°43' W 074°03'9466218455.3
2017-Sep-16 21:26N 31°42' E 121°10'1219656.4
2017-Sep-16 21:25N 29°56' E 122°17'963321646.7
2017-Sep-16 20:58N 40°43' W 074°03'9633309625.5
2017-Sep-16 20:56N 29°56' E 122°17'1216208.3
2017-Sep-16 20:55N 31°42' E 121°10'115.0
2017-Sep-16 20:49N 31°41' E 121°11'119350.8
2017-Sep-16 20:29N 29°56' E 122°17'9633737834.0
2017-Sep-16 20:28N 40°43' W 074°03'94661135967.7
2017-Sep-16 20:28N 31°42' E 121°10'121245.1
2017-Sep-16 19:58N 29°56' E 122°17'963334678325.7
2017-Sep-16 19:58N 40°43' W 074°03'946632611.5
2017-Sep-16 19:41N 31°42' E 121°10'946645197.7
2017-Sep-16 19:28N 40°43' W 074°03'9633327154.5
2017-Sep-16 19:26N 29°56' E 122°17'121862.7
2017-Sep-16 19:18N 31°42' E 121°10'1 6.1
2017-Sep-16 19:04N 31°41' E 121°11'1192097.0
2017-Sep-16 19:01N 29°56' E 122°17'9633234313.8
2017-Sep-16 18:58N 40°43' W 074°03'9466167054.1
2017-Sep-16 18:55N 31°42' E 121°10'114.7
2017-Sep-16 18:49N 31°41' E 121°11'119385.8
2017-Sep-16 18:30N 29°56' E 122°17'1213623.0
2017-Sep-16 18:28N 31°42' E 121°10'94662434216.5
2017-Sep-16 18:28N 40°43' W 074°03'946856248.0
2017-Sep-16 18:18N 31°41' E 121°11'119404.3
2017-Sep-16 18:00N 29°56' E 122°17'1218202.7
2017-Sep-16 17:59N 31°42' E 121°10'9466436910.6
2017-Sep-16 17:58N 40°43' W 074°03'946829537.5
2017-Sep-16 17:39N 31°41' E 121°11'946852683.6
2017-Sep-16 17:28N 40°43' W 074°03'9633937251.6
2017-Sep-16 17:27N 29°56' E 122°17'119411.3
2017-Sep-16 17:10N 31°41' E 121°11'119737.1
2017-Sep-16 17:00N 29°56' E 122°17'9633256876.0
2017-Sep-16 16:58N 40°43' W 074°03'9468150824.5
2017-Sep-16 16:54N 31°41' E 121°11'120.8
2017-Sep-16 16:50N 31°42' E 121°10'121366.3
2017-Sep-16 16:30N 29°56' E 122°17'9633247702.0
2017-Sep-16 16:28N 40°43' W 074°03'9466262146.2
2017-Sep-16 16:26N 31°42' E 121°10'121283.6
2017-Sep-16 16:00N 29°56' E 122°17'9633254987.5
2017-Sep-16 15:58N 40°43' W 074°03'946622840.9
2017-Sep-16 15:33N 31°42' E 121°10'1212081.3
2017-Sep-16 15:30N 29°56' E 122°17'9633350285.9
2017-Sep-16 15:28N 40°43' W 074°03'9466358722.4
2017-Sep-16 15:26N 31°42' E 121°10'121272.1
2017-Sep-16 15:00N 29°56' E 122°17'9633333445.5
2017-Sep-16 14:58N 40°43' W 074°03'9466181269.2
2017-Sep-16 14:55N 31°42' E 121°10'121278.0
2017-Sep-16 14:29N 29°56' E 122°17'9633707721.0
2017-Sep-16 14:28N 40°43' W 074°03'9466138530.9
2017-Sep-16 14:24N 31°42' E 121°10'1 5.0
2017-Sep-16 14:07N 31°41' E 121°11'120887.0
2017-Sep-16 13:59N 29°56' E 122°17'9633450367.9
2017-Sep-16 13:58N 40°43' W 074°03'9468160781.4
2017-Sep-16 13:55N 31°41' E 121°11'132.1
2017-Sep-16 13:52N 31°42' E 121°10'946623781.3
2017-Sep-16 13:28N 40°43' W 074°03'9468396345.4
2017-Sep-16 13:27N 31°41' E 121°11'11915364.2
2017-Sep-16 13:26N 29°56' E 122°17'121399.9
2017-Sep-16 13:08N 31°42' E 121°10'0 0.0
2017-Sep-16 13:00N 31°42' E 121°10'148.8
2017-Sep-16 12:59N 31°41' E 121°11'94681136191.1
2017-Sep-16 12:58N 40°43' W 074°03'9633100517.0
2017-Sep-16 12:52N 29°56' E 122°17'121322.0
2017-Sep-16 12:30N 31°42' E 121°10'183.4
2017-Sep-16 12:29N 31°41' E 121°11'9468852149.5
2017-Sep-16 12:28N 40°43' W 074°03'9633129881.8
2017-Sep-16 12:24N 29°56' E 122°17'963322636.1
2017-Sep-16 11:58N 40°43' W 074°03'9633145707.7
2017-Sep-16 11:54N 29°56' E 122°17'1191990.4
2017-Sep-16 11:51N 31°41' E 121°11'119330.3
2017-Sep-16 11:29N 29°56' E 122°17'9633737834.0
2017-Sep-16 11:28N 40°43' W 074°03'94682434728.5
2017-Sep-16 11:28N 31°41' E 121°11'946819085.2
2017-Sep-16 10:58N 40°43' W 074°03'9633262712.3
2017-Sep-16 10:56N 29°56' E 122°17'1191609.1
2017-Sep-16 10:51N 31°41' E 121°11'119318.0
2017-Sep-16 10:29N 29°55' E 122°16'9633937231.4
2017-Sep-16 10:28N 40°43' W 074°03'9468102054.5
2017-Sep-16 10:23N 31°41' E 121°11'120323.3
2017-Sep-16 10:00N 29°53' E 122°12'9632249471.5
2017-Sep-16 09:58N 40°43' W 074°03'963220863.8
2017-Sep-16 09:30N 29°50' E 122°08'9632258773.2
2017-Sep-16 09:28N 40°43' W 074°03'963219669.3
2017-Sep-16 08:59N 29°46' E 122°04'9632845778.4
2017-Sep-16 08:58N 40°43' W 074°03'946822380.9
2017-Sep-16 08:33N 31°41' E 121°11'0 0.7
2017-Sep-16 08:29N 31°41' E 121°11'94681262456.6
2017-Sep-16 08:28N 40°43' W 074°03'963885246.6
2017-Sep-16 08:21N 29°41' E 122°03'128368.3
2017-Sep-16 08:00N 31°41' E 121°11'9468243473.8
2017-Sep-16 07:58N 40°43' W 074°03'9643619923.5
2017-Sep-16 07:57N 29°37' E 122°05'964319940.1
2017-Sep-16 07:28N 40°43' W 074°03'0 0.0
2017-Sep-16 06:58N 40°43' W 074°03'0 0.0
2017-Sep-16 06:28N 40°43' W 074°03'9468163092.5
2017-Sep-16 06:25N 31°41' E 121°11'0 0.1
2017-Sep-16 06:00N 31°41' E 121°11'9468374572.4
2017-Sep-16 05:58N 40°43' W 074°03'0 0.0
2017-Sep-16 05:28N 40°43' W 074°03'0 0.0
2017-Sep-16 04:58N 40°43' W 074°03'0 0.0
2017-Sep-16 04:28N 40°43' W 074°03'0 0.0
2017-Sep-16 03:58N 40°43' W 074°03'0 0.0
2017-Sep-16 03:28N 40°43' W 074°03'0 0.0
2017-Sep-16 02:58N 40°43' W 074°03'0 0.0
2017-Sep-16 02:28N 40°43' W 074°03'0 0.0
2017-Sep-16 01:58N 40°43' W 074°03'0 0.0
2017-Sep-16 01:28N 40°43' W 074°03'0 0.0
2017-Sep-16 00:58N 40°43' W 074°03'0 0.0
2017-Sep-16 00:28N 40°43' W 074°03'0 0.0
2017-Sep-15 23:58N 40°43' W 074°03'0 0.0
2017-Sep-15 23:28N 40°43' W 074°03'0 0.0
2017-Sep-15 22:58N 40°43' W 074°03'0 0.0
2017-Sep-15 22:28N 40°43' W 074°03'0 0.0
2017-Sep-15 21:58N 40°43' W 074°03'0 0.0
2017-Sep-15 21:28N 40°43' W 074°03'0 0.0
2017-Sep-15 20:58N 40°43' W 074°03'0 0.0
2017-Sep-15 20:28N 40°43' W 074°03'0 0.0
2017-Sep-15 19:58N 40°43' W 074°03'0 0.0
2017-Sep-15 19:28N 40°43' W 074°03'0 0.0
2017-Sep-15 18:58N 40°43' W 074°03'0 0.0
2017-Sep-15 18:29N 40°43' W 074°03'0 0.0
2017-Sep-15 17:59N 40°43' W 074°03'0 0.0
2017-Sep-15 17:29N 40°43' W 074°03'0 0.0
2017-Sep-15 16:59N 40°43' W 074°03'0 0.0
2017-Sep-15 16:29N 40°43' W 074°03'0 0.0
2017-Sep-15 15:59N 40°43' W 074°03'0 0.0
2017-Sep-15 15:29N 40°43' W 074°03'0 0.0
2017-Sep-15 14:59N 40°43' W 074°03'0 0.0
2017-Sep-15 14:29N 40°43' W 074°03'902921553.6
2017-Sep-15 14:04N 38°52' E 121°45'9029112466.6
2017-Sep-15 13:59N 40°43' W 074°03'0 0.0
2017-Sep-15 13:29N 40°43' W 074°03'0 0.0
2017-Sep-15 12:59N 40°43' W 074°03'0 0.0
2017-Sep-15 12:29N 40°43' W 074°03'0 0.0
2017-Sep-15 11:59N 40°43' W 074°03'0 0.0
2017-Sep-15 11:29N 40°43' W 074°03'0 0.0
2017-Sep-15 10:59N 40°43' W 074°03'0 0.0
2017-Sep-15 10:29N 40°43' W 074°03'0 0.0
2017-Sep-15 09:59N 40°43' W 074°03'0 0.0
2017-Sep-15 09:29N 40°43' W 074°03'0 0.0
2017-Sep-15 08:59N 40°43' W 074°03'0 0.0
2017-Sep-15 08:29N 40°43' W 074°03'0 0.0
2017-Sep-15 07:59N 40°43' W 074°03'0 0.0
2017-Sep-15 07:29N 40°43' W 074°03'0 0.0
2017-Sep-15 06:59N 40°43' W 074°03'0 0.0
2017-Sep-15 06:29N 40°43' W 074°03'0 0.0
2017-Sep-15 05:59N 40°43' W 074°03'0 0.0
2017-Sep-15 05:29N 40°43' W 074°03'0 0.0
2017-Sep-15 04:59N 40°43' W 074°03'0 0.0
2017-Sep-15 04:26N 40°43' W 074°03'0 0.0
2017-Sep-15 03:59N 40°43' W 074°03'0 0.0
2017-Sep-15 03:29N 40°43' W 074°03'0 0.0
2017-Sep-15 02:59N 40°43' W 074°03'950332957.3
2017-Sep-15 02:42N 31°08' E 121°10'950344777.1
2017-Sep-15 02:29N 40°43' W 074°03'9501107219.5
2017-Sep-15 02:24N 31°09' E 121°09'2 5.6
2017-Sep-15 02:00N 31°11' E 121°09'9498474921.7
2017-Sep-15 01:59N 40°43' W 074°03'0 0.0
2017-Sep-15 01:29N 40°43' W 074°03'0 0.0
2017-Sep-15 00:59N 40°43' W 074°03'  

Dump ship's entire track history